<?xml version="1.0" encoding="UTF-8" standalone="no" ?>
<gpx xmlns="http://www.topografix.com/GPX/1/1" xmlns:xsi="http://www.w3.org/2001/XMLSchema-instance" xsi:schemaLocation="http://www.topografix.com/GPX/1/1 http://www.topografix.com/GPX/1/1/gpx.xsd" version="1.1" creator="VisuGPX - https://www.visugpx.com">
  <metadata>
    <name>Etape-3-variante</name>
    <desc><![CDATA[

]]></desc>
  </metadata>
  <trk>
    <name><![CDATA[Etape-3-variante]]></name>
    <trkseg>
      <trkpt lat="44.81897" lon="6.20784">
        <ele>1121.3</ele>
        <time>2021-07-13T09:18:08.90Z</time>
      </trkpt>
      <trkpt lat="44.81895" lon="6.20774">
        <ele>1121.1</ele>
        <time>2021-07-13T09:18:17.32Z</time>
      </trkpt>
      <trkpt lat="44.81897" lon="6.20784">
        <ele>1121.3</ele>
        <time>2021-07-13T09:18:25.74Z</time>
      </trkpt>
      <trkpt lat="44.81907" lon="6.20767">
        <ele>1119.2</ele>
        <time>2021-07-13T09:18:43.65Z</time>
      </trkpt>
      <trkpt lat="44.81915" lon="6.2074">
        <ele>1116.6</ele>
        <time>2021-07-13T09:19:07.37Z</time>
      </trkpt>
      <trkpt lat="44.81918" lon="6.20721">
        <ele>1115.2</ele>
        <time>2021-07-13T09:19:23.15Z</time>
      </trkpt>
      <trkpt lat="44.8192" lon="6.20695">
        <ele>1113.6</ele>
        <time>2021-07-13T09:19:44.35Z</time>
      </trkpt>
      <trkpt lat="44.81903" lon="6.20596">
        <ele>1112</ele>
        <time>2021-07-13T09:21:06.92Z</time>
      </trkpt>
      <trkpt lat="44.81906" lon="6.20578">
        <ele>1111.4</ele>
        <time>2021-07-13T09:21:21.91Z</time>
      </trkpt>
      <trkpt lat="44.81915" lon="6.20546">
        <ele>1110.2</ele>
        <time>2021-07-13T09:21:49.82Z</time>
      </trkpt>
      <trkpt lat="44.81926" lon="6.20523">
        <ele>1109.4</ele>
        <time>2021-07-13T09:22:12.31Z</time>
      </trkpt>
      <trkpt lat="44.81934" lon="6.2051">
        <ele>1108.9</ele>
        <time>2021-07-13T09:22:26.26Z</time>
      </trkpt>
      <trkpt lat="44.81939" lon="6.20468">
        <ele>1107.8</ele>
        <time>2021-07-13T09:23:00.78Z</time>
      </trkpt>
      <trkpt lat="44.81942" lon="6.20436">
        <ele>1107.1</ele>
        <time>2021-07-13T09:23:26.95Z</time>
      </trkpt>
      <trkpt lat="44.81962" lon="6.20319">
        <ele>1106.7</ele>
        <time>2021-07-13T09:25:04.51Z</time>
      </trkpt>
      <trkpt lat="44.81958" lon="6.20262">
        <ele>1104.8</ele>
        <time>2021-07-13T09:25:50.95Z</time>
      </trkpt>
      <trkpt lat="44.81957" lon="6.20213">
        <ele>1103.8</ele>
        <time>2021-07-13T09:26:30.69Z</time>
      </trkpt>
      <trkpt lat="44.81959" lon="6.19983">
        <ele>1099</ele>
        <time>2021-07-13T09:29:37.15Z</time>
      </trkpt>
      <trkpt lat="44.81959" lon="6.19943">
        <ele>1099</ele>
        <time>2021-07-13T09:30:09.58Z</time>
      </trkpt>
      <trkpt lat="44.81957" lon="6.19879">
        <ele>1097.2</ele>
        <time>2021-07-13T09:31:01.51Z</time>
      </trkpt>
      <trkpt lat="44.81954" lon="6.19692">
        <ele>1094.6</ele>
        <time>2021-07-13T09:33:33.14Z</time>
      </trkpt>
      <trkpt lat="44.81958" lon="6.19645">
        <ele>1094.9</ele>
        <time>2021-07-13T09:34:11.52Z</time>
      </trkpt>
      <trkpt lat="44.81956" lon="6.19623">
        <ele>1094.7</ele>
        <time>2021-07-13T09:34:29.50Z</time>
      </trkpt>
      <trkpt lat="44.81943" lon="6.19623">
        <ele>1094.5</ele>
        <time>2021-07-13T09:34:44.36Z</time>
      </trkpt>
      <trkpt lat="44.81941" lon="6.19623">
        <ele>1094.4</ele>
        <time>2021-07-13T09:34:46.64Z</time>
      </trkpt>
      <trkpt lat="44.81943" lon="6.19623">
        <ele>1094.5</ele>
        <time>2021-07-13T09:34:48.93Z</time>
      </trkpt>
      <trkpt lat="44.81956" lon="6.19623">
        <ele>1094.7</ele>
        <time>2021-07-13T09:35:03.78Z</time>
      </trkpt>
      <trkpt lat="44.8196" lon="6.19622">
        <ele>1094.8</ele>
        <time>2021-07-13T09:35:08.43Z</time>
      </trkpt>
      <trkpt lat="44.81964" lon="6.19622">
        <ele>1094.8</ele>
        <time>2021-07-13T09:35:13Z</time>
      </trkpt>
      <trkpt lat="44.81967" lon="6.19622">
        <ele>1094.9</ele>
        <time>2021-07-13T09:35:16.43Z</time>
      </trkpt>
      <trkpt lat="44.81988" lon="6.19625">
        <ele>1095.3</ele>
        <time>2021-07-13T09:35:40.55Z</time>
      </trkpt>
      <trkpt lat="44.81998" lon="6.19631">
        <ele>1095.5</ele>
        <time>2021-07-13T09:35:52.97Z</time>
      </trkpt>
      <trkpt lat="44.82008" lon="6.19639">
        <ele>1096.9</ele>
        <time>2021-07-13T09:36:06.11Z</time>
      </trkpt>
      <trkpt lat="44.82014" lon="6.19648">
        <ele>1097.8</ele>
        <time>2021-07-13T09:36:16.12Z</time>
      </trkpt>
      <trkpt lat="44.82019" lon="6.1966">
        <ele>1098.5</ele>
        <time>2021-07-13T09:36:27.41Z</time>
      </trkpt>
      <trkpt lat="44.82021" lon="6.19672">
        <ele>1098.6</ele>
        <time>2021-07-13T09:36:37.40Z</time>
      </trkpt>
      <trkpt lat="44.82023" lon="6.19717">
        <ele>1097.8</ele>
        <time>2021-07-13T09:37:13.95Z</time>
      </trkpt>
      <trkpt lat="44.82023" lon="6.19791">
        <ele>1096.7</ele>
        <time>2021-07-13T09:38:13.94Z</time>
      </trkpt>
      <trkpt lat="44.82027" lon="6.1989">
        <ele>1099.1</ele>
        <time>2021-07-13T09:39:34.32Z</time>
      </trkpt>
      <trkpt lat="44.82034" lon="6.19951">
        <ele>1101.5</ele>
        <time>2021-07-13T09:40:24.42Z</time>
      </trkpt>
      <trkpt lat="44.82043" lon="6.20013">
        <ele>1103.9</ele>
        <time>2021-07-13T09:41:15.72Z</time>
      </trkpt>
      <trkpt lat="44.82045" lon="6.20023">
        <ele>1104.2</ele>
        <time>2021-07-13T09:41:24.14Z</time>
      </trkpt>
      <trkpt lat="44.82048" lon="6.20046">
        <ele>1104.9</ele>
        <time>2021-07-13T09:41:43.10Z</time>
      </trkpt>
      <trkpt lat="44.82063" lon="6.2005">
        <ele>1106.2</ele>
        <time>2021-07-13T09:42:00.54Z</time>
      </trkpt>
      <trkpt lat="44.8209" lon="6.20052">
        <ele>1109.1</ele>
        <time>2021-07-13T09:42:31.44Z</time>
      </trkpt>
      <trkpt lat="44.82101" lon="6.20059">
        <ele>1111</ele>
        <time>2021-07-13T09:42:45.24Z</time>
      </trkpt>
      <trkpt lat="44.82117" lon="6.20065">
        <ele>1113.8</ele>
        <time>2021-07-13T09:43:04.16Z</time>
      </trkpt>
      <trkpt lat="44.82123" lon="6.20072">
        <ele>1114.9</ele>
        <time>2021-07-13T09:43:13.06Z</time>
      </trkpt>
      <trkpt lat="44.82131" lon="6.20085">
        <ele>1116.6</ele>
        <time>2021-07-13T09:43:27.01Z</time>
      </trkpt>
      <trkpt lat="44.82138" lon="6.20082">
        <ele>1117.8</ele>
        <time>2021-07-13T09:43:35.37Z</time>
      </trkpt>
      <trkpt lat="44.8215" lon="6.20091">
        <ele>1120</ele>
        <time>2021-07-13T09:43:50.91Z</time>
      </trkpt>
      <trkpt lat="44.82182" lon="6.20093">
        <ele>1127.3</ele>
        <time>2021-07-13T09:44:27.51Z</time>
      </trkpt>
      <trkpt lat="44.82197" lon="6.20092">
        <ele>1131.5</ele>
        <time>2021-07-13T09:44:44.68Z</time>
      </trkpt>
      <trkpt lat="44.82218" lon="6.20078">
        <ele>1136.3</ele>
        <time>2021-07-13T09:45:11.22Z</time>
      </trkpt>
      <trkpt lat="44.82225" lon="6.20084">
        <ele>1138.5</ele>
        <time>2021-07-13T09:45:20.59Z</time>
      </trkpt>
      <trkpt lat="44.82224" lon="6.20116">
        <ele>1141.9</ele>
        <time>2021-07-13T09:45:46.55Z</time>
      </trkpt>
      <trkpt lat="44.8223" lon="6.20177">
        <ele>1150.8</ele>
        <time>2021-07-13T09:46:36.47Z</time>
      </trkpt>
      <trkpt lat="44.82275" lon="6.20111">
        <ele>1162.1</ele>
        <time>2021-07-13T09:47:50.68Z</time>
      </trkpt>
      <trkpt lat="44.82292" lon="6.20101">
        <ele>1168.8</ele>
        <time>2021-07-13T09:48:11.74Z</time>
      </trkpt>
      <trkpt lat="44.82287" lon="6.20131">
        <ele>1171.7</ele>
        <time>2021-07-13T09:48:36.72Z</time>
      </trkpt>
      <trkpt lat="44.82285" lon="6.2018">
        <ele>1178.5</ele>
        <time>2021-07-13T09:49:16.50Z</time>
      </trkpt>
      <trkpt lat="44.82287" lon="6.20191">
        <ele>1180.7</ele>
        <time>2021-07-13T09:49:25.71Z</time>
      </trkpt>
      <trkpt lat="44.82329" lon="6.20136">
        <ele>1193.9</ele>
        <time>2021-07-13T09:50:31.22Z</time>
      </trkpt>
      <trkpt lat="44.82326" lon="6.20211">
        <ele>1205.2</ele>
        <time>2021-07-13T09:51:32.11Z</time>
      </trkpt>
      <trkpt lat="44.8233" lon="6.20261">
        <ele>1214.8</ele>
        <time>2021-07-13T09:52:12.90Z</time>
      </trkpt>
      <trkpt lat="44.82339" lon="6.20232">
        <ele>1217.4</ele>
        <time>2021-07-13T09:52:38.56Z</time>
      </trkpt>
      <trkpt lat="44.82353" lon="6.202">
        <ele>1222.3</ele>
        <time>2021-07-13T09:53:09.03Z</time>
      </trkpt>
      <trkpt lat="44.82372" lon="6.20175">
        <ele>1231.5</ele>
        <time>2021-07-13T09:53:38.74Z</time>
      </trkpt>
      <trkpt lat="44.82373" lon="6.20212">
        <ele>1239.7</ele>
        <time>2021-07-13T09:54:08.75Z</time>
      </trkpt>
      <trkpt lat="44.82376" lon="6.20229">
        <ele>1245.5</ele>
        <time>2021-07-13T09:54:22.95Z</time>
      </trkpt>
      <trkpt lat="44.82389" lon="6.20203">
        <ele>1249.9</ele>
        <time>2021-07-13T09:54:48.74Z</time>
      </trkpt>
      <trkpt lat="44.82395" lon="6.20194">
        <ele>1252.4</ele>
        <time>2021-07-13T09:54:58.75Z</time>
      </trkpt>
      <trkpt lat="44.82404" lon="6.20243">
        <ele>1270.4</ele>
        <time>2021-07-13T09:55:39.78Z</time>
      </trkpt>
      <trkpt lat="44.82414" lon="6.20217">
        <ele>1272</ele>
        <time>2021-07-13T09:56:03.75Z</time>
      </trkpt>
      <trkpt lat="44.82428" lon="6.2021">
        <ele>1281.6</ele>
        <time>2021-07-13T09:56:20.73Z</time>
      </trkpt>
      <trkpt lat="44.8244" lon="6.20202">
        <ele>1289.6</ele>
        <time>2021-07-13T09:56:35.90Z</time>
      </trkpt>
      <trkpt lat="44.82446" lon="6.2018">
        <ele>1290</ele>
        <time>2021-07-13T09:56:55.01Z</time>
      </trkpt>
      <trkpt lat="44.82469" lon="6.20171">
        <ele>1308</ele>
        <time>2021-07-13T09:57:22.29Z</time>
      </trkpt>
      <trkpt lat="44.82472" lon="6.20125">
        <ele>1302.5</ele>
        <time>2021-07-13T09:57:59.73Z</time>
      </trkpt>
      <trkpt lat="44.82481" lon="6.201">
        <ele>1305.8</ele>
        <time>2021-07-13T09:58:22.46Z</time>
      </trkpt>
      <trkpt lat="44.82486" lon="6.20089">
        <ele>1308.1</ele>
        <time>2021-07-13T09:58:33.05Z</time>
      </trkpt>
      <trkpt lat="44.82499" lon="6.20066">
        <ele>1313.2</ele>
        <time>2021-07-13T09:58:56.88Z</time>
      </trkpt>
      <trkpt lat="44.82518" lon="6.20024">
        <ele>1315.6</ele>
        <time>2021-07-13T09:59:37.26Z</time>
      </trkpt>
      <trkpt lat="44.82537" lon="6.19992">
        <ele>1321.6</ele>
        <time>2021-07-13T10:00:11.09Z</time>
      </trkpt>
      <trkpt lat="44.82567" lon="6.19976">
        <ele>1339.7</ele>
        <time>2021-07-13T10:00:47.75Z</time>
      </trkpt>
      <trkpt lat="44.82592" lon="6.19961">
        <ele>1351.2</ele>
        <time>2021-07-13T10:01:18.80Z</time>
      </trkpt>
      <trkpt lat="44.82622" lon="6.19951">
        <ele>1362.9</ele>
        <time>2021-07-13T10:01:54.03Z</time>
      </trkpt>
      <trkpt lat="44.82647" lon="6.19936">
        <ele>1369.5</ele>
        <time>2021-07-13T10:02:25.08Z</time>
      </trkpt>
      <trkpt lat="44.82714" lon="6.19889">
        <ele>1391.2</ele>
        <time>2021-07-13T10:03:50.61Z</time>
      </trkpt>
      <trkpt lat="44.82781" lon="6.19831">
        <ele>1416</ele>
        <time>2021-07-13T10:05:20.46Z</time>
      </trkpt>
      <trkpt lat="44.82813" lon="6.19789">
        <ele>1427.4</ele>
        <time>2021-07-13T10:06:10.42Z</time>
      </trkpt>
      <trkpt lat="44.82827" lon="6.19823">
        <ele>1436.3</ele>
        <time>2021-07-13T10:06:42.29Z</time>
      </trkpt>
      <trkpt lat="44.82845" lon="6.19797">
        <ele>1444.4</ele>
        <time>2021-07-13T10:07:11.74Z</time>
      </trkpt>
      <trkpt lat="44.82861" lon="6.19832">
        <ele>1455.6</ele>
        <time>2021-07-13T10:07:45.49Z</time>
      </trkpt>
      <trkpt lat="44.82886" lon="6.1979">
        <ele>1471</ele>
        <time>2021-07-13T10:08:29.93Z</time>
      </trkpt>
      <trkpt lat="44.82896" lon="6.19827">
        <ele>1475.7</ele>
        <time>2021-07-13T10:09:02.03Z</time>
      </trkpt>
      <trkpt lat="44.82909" lon="6.19851">
        <ele>1482.9</ele>
        <time>2021-07-13T10:09:26.50Z</time>
      </trkpt>
      <trkpt lat="44.82916" lon="6.19829">
        <ele>1487</ele>
        <time>2021-07-13T10:09:46.05Z</time>
      </trkpt>
      <trkpt lat="44.82926" lon="6.1981">
        <ele>1494.3</ele>
        <time>2021-07-13T10:10:05.23Z</time>
      </trkpt>
      <trkpt lat="44.82929" lon="6.19831">
        <ele>1494</ele>
        <time>2021-07-13T10:10:22.59Z</time>
      </trkpt>
      <trkpt lat="44.82937" lon="6.19853">
        <ele>1498.6</ele>
        <time>2021-07-13T10:10:42.63Z</time>
      </trkpt>
      <trkpt lat="44.82954" lon="6.19831">
        <ele>1507.8</ele>
        <time>2021-07-13T10:11:09Z</time>
      </trkpt>
      <trkpt lat="44.82961" lon="6.19809">
        <ele>1513.5</ele>
        <time>2021-07-13T10:11:28.54Z</time>
      </trkpt>
      <trkpt lat="44.82976" lon="6.19786">
        <ele>1523.5</ele>
        <time>2021-07-13T10:11:53.87Z</time>
      </trkpt>
      <trkpt lat="44.82981" lon="6.19769">
        <ele>1527.5</ele>
        <time>2021-07-13T10:12:08.79Z</time>
      </trkpt>
      <trkpt lat="44.82994" lon="6.19789">
        <ele>1533</ele>
        <time>2021-07-13T10:12:30.77Z</time>
      </trkpt>
      <trkpt lat="44.83" lon="6.19745">
        <ele>1538.6</ele>
        <time>2021-07-13T10:13:07.09Z</time>
      </trkpt>
      <trkpt lat="44.83013" lon="6.19749">
        <ele>1547.8</ele>
        <time>2021-07-13T10:13:22.30Z</time>
      </trkpt>
      <trkpt lat="44.83007" lon="6.19725">
        <ele>1541.7</ele>
        <time>2021-07-13T10:13:42.92Z</time>
      </trkpt>
      <trkpt lat="44.82986" lon="6.19707">
        <ele>1528</ele>
        <time>2021-07-13T10:14:11.01Z</time>
      </trkpt>
      <trkpt lat="44.82998" lon="6.19696">
        <ele>1534</ele>
        <time>2021-07-13T10:14:27.37Z</time>
      </trkpt>
      <trkpt lat="44.83029" lon="6.197">
        <ele>1552.7</ele>
        <time>2021-07-13T10:15:02.94Z</time>
      </trkpt>
      <trkpt lat="44.83045" lon="6.19704">
        <ele>1562.9</ele>
        <time>2021-07-13T10:15:21.51Z</time>
      </trkpt>
      <trkpt lat="44.8307" lon="6.19687">
        <ele>1574.7</ele>
        <time>2021-07-13T10:15:53.23Z</time>
      </trkpt>
      <trkpt lat="44.83072" lon="6.19707">
        <ele>1579.8</ele>
        <time>2021-07-13T10:16:09.60Z</time>
      </trkpt>
      <trkpt lat="44.83086" lon="6.19716">
        <ele>1590.4</ele>
        <time>2021-07-13T10:16:27.19Z</time>
      </trkpt>
      <trkpt lat="44.83102" lon="6.19705">
        <ele>1598.4</ele>
        <time>2021-07-13T10:16:47.53Z</time>
      </trkpt>
      <trkpt lat="44.83107" lon="6.19693">
        <ele>1598.5</ele>
        <time>2021-07-13T10:16:58.81Z</time>
      </trkpt>
      <trkpt lat="44.83108" lon="6.1969">
        <ele>1598.3</ele>
        <time>2021-07-13T10:17:01.50Z</time>
      </trkpt>
      <trkpt lat="44.83137" lon="6.19683">
        <ele>1614.1</ele>
        <time>2021-07-13T10:17:35.12Z</time>
      </trkpt>
      <trkpt lat="44.83173" lon="6.19664">
        <ele>1630.3</ele>
        <time>2021-07-13T10:18:19.05Z</time>
      </trkpt>
      <trkpt lat="44.83179" lon="6.19665">
        <ele>1635.1</ele>
        <time>2021-07-13T10:18:25.96Z</time>
      </trkpt>
      <trkpt lat="44.83181" lon="6.19659">
        <ele>1635.4</ele>
        <time>2021-07-13T10:18:31.33Z</time>
      </trkpt>
      <trkpt lat="44.83195" lon="6.19626">
        <ele>1640.1</ele>
        <time>2021-07-13T10:19:02.50Z</time>
      </trkpt>
      <trkpt lat="44.83204" lon="6.19584">
        <ele>1640.3</ele>
        <time>2021-07-13T10:19:38.06Z</time>
      </trkpt>
      <trkpt lat="44.8321" lon="6.1955">
        <ele>1645.3</ele>
        <time>2021-07-13T10:20:06.46Z</time>
      </trkpt>
      <trkpt lat="44.83207" lon="6.19527">
        <ele>1643.1</ele>
        <time>2021-07-13T10:20:25.41Z</time>
      </trkpt>
      <trkpt lat="44.83217" lon="6.19502">
        <ele>1648.9</ele>
        <time>2021-07-13T10:20:48.67Z</time>
      </trkpt>
      <trkpt lat="44.83247" lon="6.19482">
        <ele>1668.1</ele>
        <time>2021-07-13T10:21:26.60Z</time>
      </trkpt>
      <trkpt lat="44.83263" lon="6.19489">
        <ele>1677.3</ele>
        <time>2021-07-13T10:21:45.74Z</time>
      </trkpt>
      <trkpt lat="44.83281" lon="6.1951">
        <ele>1690.2</ele>
        <time>2021-07-13T10:22:12.44Z</time>
      </trkpt>
      <trkpt lat="44.83287" lon="6.19488">
        <ele>1693.5</ele>
        <time>2021-07-13T10:22:31.55Z</time>
      </trkpt>
      <trkpt lat="44.83287" lon="6.19473">
        <ele>1694.3</ele>
        <time>2021-07-13T10:22:43.70Z</time>
      </trkpt>
      <trkpt lat="44.8328" lon="6.19464">
        <ele>1690.6</ele>
        <time>2021-07-13T10:22:54.53Z</time>
      </trkpt>
      <trkpt lat="44.83287" lon="6.19452">
        <ele>1695.6</ele>
        <time>2021-07-13T10:23:07.12Z</time>
      </trkpt>
      <trkpt lat="44.83296" lon="6.1945">
        <ele>1700.9</ele>
        <time>2021-07-13T10:23:17.54Z</time>
      </trkpt>
      <trkpt lat="44.83312" lon="6.19467">
        <ele>1710.2</ele>
        <time>2021-07-13T10:23:40.43Z</time>
      </trkpt>
      <trkpt lat="44.83319" lon="6.19481">
        <ele>1714.7</ele>
        <time>2021-07-13T10:23:54.32Z</time>
      </trkpt>
      <trkpt lat="44.83322" lon="6.19502">
        <ele>1717.4</ele>
        <time>2021-07-13T10:24:11.68Z</time>
      </trkpt>
      <trkpt lat="44.83322" lon="6.19518">
        <ele>1719.8</ele>
        <time>2021-07-13T10:24:24.64Z</time>
      </trkpt>
      <trkpt lat="44.83333" lon="6.19495">
        <ele>1724.5</ele>
        <time>2021-07-13T10:24:47.13Z</time>
      </trkpt>
      <trkpt lat="44.83336" lon="6.19471">
        <ele>1725.4</ele>
        <time>2021-07-13T10:25:06.88Z</time>
      </trkpt>
      <trkpt lat="44.83337" lon="6.19448">
        <ele>1724.8</ele>
        <time>2021-07-13T10:25:25.56Z</time>
      </trkpt>
      <trkpt lat="44.83349" lon="6.19471">
        <ele>1733.9</ele>
        <time>2021-07-13T10:25:48.70Z</time>
      </trkpt>
      <trkpt lat="44.83357" lon="6.195">
        <ele>1741.5</ele>
        <time>2021-07-13T10:26:13.92Z</time>
      </trkpt>
      <trkpt lat="44.83363" lon="6.19533">
        <ele>1752.2</ele>
        <time>2021-07-13T10:26:41.53Z</time>
      </trkpt>
      <trkpt lat="44.83354" lon="6.1956">
        <ele>1750.3</ele>
        <time>2021-07-13T10:27:05.71Z</time>
      </trkpt>
      <trkpt lat="44.83354" lon="6.1959">
        <ele>1756</ele>
        <time>2021-07-13T10:27:30.02Z</time>
      </trkpt>
      <trkpt lat="44.83343" lon="6.19603">
        <ele>1749.4</ele>
        <time>2021-07-13T10:27:46.42Z</time>
      </trkpt>
      <trkpt lat="44.83343" lon="6.19635">
        <ele>1756.2</ele>
        <time>2021-07-13T10:28:12.36Z</time>
      </trkpt>
      <trkpt lat="44.8336" lon="6.19625">
        <ele>1768.2</ele>
        <time>2021-07-13T10:28:33.41Z</time>
      </trkpt>
      <trkpt lat="44.83363" lon="6.19644">
        <ele>1774.6</ele>
        <time>2021-07-13T10:28:49.19Z</time>
      </trkpt>
      <trkpt lat="44.83377" lon="6.19645">
        <ele>1786.4</ele>
        <time>2021-07-13T10:29:05.21Z</time>
      </trkpt>
      <trkpt lat="44.83384" lon="6.19622">
        <ele>1787.7</ele>
        <time>2021-07-13T10:29:25.49Z</time>
      </trkpt>
      <trkpt lat="44.834" lon="6.19595">
        <ele>1796</ele>
        <time>2021-07-13T10:29:54.01Z</time>
      </trkpt>
      <trkpt lat="44.83402" lon="6.19564">
        <ele>1790.2</ele>
        <time>2021-07-13T10:30:19.24Z</time>
      </trkpt>
      <trkpt lat="44.83415" lon="6.19595">
        <ele>1808.7</ele>
        <time>2021-07-13T10:30:48.42Z</time>
      </trkpt>
      <trkpt lat="44.83423" lon="6.19626">
        <ele>1820.4</ele>
        <time>2021-07-13T10:31:15.16Z</time>
      </trkpt>
      <trkpt lat="44.83427" lon="6.19611">
        <ele>1821.1</ele>
        <time>2021-07-13T10:31:28.15Z</time>
      </trkpt>
      <trkpt lat="44.83425" lon="6.19606">
        <ele>1818.8</ele>
        <time>2021-07-13T10:31:32.80Z</time>
      </trkpt>
      <trkpt lat="44.8343" lon="6.19591">
        <ele>1820.7</ele>
        <time>2021-07-13T10:31:46.23Z</time>
      </trkpt>
      <trkpt lat="44.83446" lon="6.19634">
        <ele>1838.1</ele>
        <time>2021-07-13T10:32:25.59Z</time>
      </trkpt>
      <trkpt lat="44.83451" lon="6.19664">
        <ele>1843.8</ele>
        <time>2021-07-13T10:32:50.56Z</time>
      </trkpt>
      <trkpt lat="44.83426" lon="6.19714">
        <ele>1835.6</ele>
        <time>2021-07-13T10:33:40.15Z</time>
      </trkpt>
      <trkpt lat="44.83413" lon="6.19744">
        <ele>1833.9</ele>
        <time>2021-07-13T10:34:08.64Z</time>
      </trkpt>
      <trkpt lat="44.83437" lon="6.19731">
        <ele>1843.2</ele>
        <time>2021-07-13T10:34:38.02Z</time>
      </trkpt>
      <trkpt lat="44.8345" lon="6.19716">
        <ele>1847.9</ele>
        <time>2021-07-13T10:34:57.22Z</time>
      </trkpt>
      <trkpt lat="44.83447" lon="6.19741">
        <ele>1848.9</ele>
        <time>2021-07-13T10:35:17.77Z</time>
      </trkpt>
      <trkpt lat="44.83441" lon="6.19759">
        <ele>1848.7</ele>
        <time>2021-07-13T10:35:33.89Z</time>
      </trkpt>
      <trkpt lat="44.83456" lon="6.19778">
        <ele>1858.1</ele>
        <time>2021-07-13T10:35:56.93Z</time>
      </trkpt>
      <trkpt lat="44.83463" lon="6.19795">
        <ele>1863.7</ele>
        <time>2021-07-13T10:36:12.86Z</time>
      </trkpt>
      <trkpt lat="44.83489" lon="6.19811">
        <ele>1876.5</ele>
        <time>2021-07-13T10:36:45.28Z</time>
      </trkpt>
      <trkpt lat="44.83496" lon="6.19817">
        <ele>1880.1</ele>
        <time>2021-07-13T10:36:54.65Z</time>
      </trkpt>
      <trkpt lat="44.83495" lon="6.19827">
        <ele>1881.2</ele>
        <time>2021-07-13T10:37:02.83Z</time>
      </trkpt>
      <trkpt lat="44.83476" lon="6.19843">
        <ele>1877.3</ele>
        <time>2021-07-13T10:37:28.12Z</time>
      </trkpt>
      <trkpt lat="44.83478" lon="6.19855">
        <ele>1881.3</ele>
        <time>2021-07-13T10:37:38.11Z</time>
      </trkpt>
      <trkpt lat="44.83496" lon="6.19849">
        <ele>1887.4</ele>
        <time>2021-07-13T10:37:59.25Z</time>
      </trkpt>
      <trkpt lat="44.835" lon="6.19861">
        <ele>1893</ele>
        <time>2021-07-13T10:38:10Z</time>
      </trkpt>
      <trkpt lat="44.83481" lon="6.19893">
        <ele>1893.1</ele>
        <time>2021-07-13T10:38:43.82Z</time>
      </trkpt>
      <trkpt lat="44.8348" lon="6.19912">
        <ele>1897.7</ele>
        <time>2021-07-13T10:38:59.26Z</time>
      </trkpt>
      <trkpt lat="44.83472" lon="6.19926">
        <ele>1895.7</ele>
        <time>2021-07-13T10:39:13.83Z</time>
      </trkpt>
      <trkpt lat="44.83465" lon="6.19967">
        <ele>1897</ele>
        <time>2021-07-13T10:39:48.01Z</time>
      </trkpt>
      <trkpt lat="44.83461" lon="6.20004">
        <ele>1898.2</ele>
        <time>2021-07-13T10:40:18.35Z</time>
      </trkpt>
      <trkpt lat="44.83472" lon="6.20025">
        <ele>1907.3</ele>
        <time>2021-07-13T10:40:39.50Z</time>
      </trkpt>
      <trkpt lat="44.8348" lon="6.20034">
        <ele>1914.1</ele>
        <time>2021-07-13T10:40:51.20Z</time>
      </trkpt>
      <trkpt lat="44.83485" lon="6.20075">
        <ele>1918.5</ele>
        <time>2021-07-13T10:41:24.92Z</time>
      </trkpt>
      <trkpt lat="44.83507" lon="6.20048">
        <ele>1935.6</ele>
        <time>2021-07-13T10:41:58.25Z</time>
      </trkpt>
      <trkpt lat="44.83525" lon="6.20038">
        <ele>1945.5</ele>
        <time>2021-07-13T10:42:20.36Z</time>
      </trkpt>
      <trkpt lat="44.83525" lon="6.20083">
        <ele>1948.2</ele>
        <time>2021-07-13T10:42:56.83Z</time>
      </trkpt>
      <trkpt lat="44.83532" lon="6.20086">
        <ele>1952.8</ele>
        <time>2021-07-13T10:43:05.19Z</time>
      </trkpt>
      <trkpt lat="44.83551" lon="6.2007">
        <ele>1963.6</ele>
        <time>2021-07-13T10:43:30.48Z</time>
      </trkpt>
      <trkpt lat="44.83564" lon="6.20075">
        <ele>1972.4</ele>
        <time>2021-07-13T10:43:45.88Z</time>
      </trkpt>
      <trkpt lat="44.83577" lon="6.20086">
        <ele>1982</ele>
        <time>2021-07-13T10:44:03.21Z</time>
      </trkpt>
      <trkpt lat="44.83582" lon="6.20107">
        <ele>1986.2</ele>
        <time>2021-07-13T10:44:21.16Z</time>
      </trkpt>
      <trkpt lat="44.83595" lon="6.20099">
        <ele>1994</ele>
        <time>2021-07-13T10:44:37.37Z</time>
      </trkpt>
      <trkpt lat="44.83601" lon="6.2012">
        <ele>1999.1</ele>
        <time>2021-07-13T10:44:55.72Z</time>
      </trkpt>
      <trkpt lat="44.83605" lon="6.20143">
        <ele>2003.4</ele>
        <time>2021-07-13T10:45:14.91Z</time>
      </trkpt>
      <trkpt lat="44.83629" lon="6.20119">
        <ele>2017</ele>
        <time>2021-07-13T10:45:48.54Z</time>
      </trkpt>
      <trkpt lat="44.83736" lon="6.20038">
        <ele>2046.6</ele>
        <time>2021-07-13T10:48:07.33Z</time>
      </trkpt>
      <trkpt lat="44.83735" lon="6.20053">
        <ele>2051.5</ele>
        <time>2021-07-13T10:48:19.54Z</time>
      </trkpt>
      <trkpt lat="44.83747" lon="6.20052">
        <ele>2055.6</ele>
        <time>2021-07-13T10:48:33.28Z</time>
      </trkpt>
      <trkpt lat="44.83734" lon="6.20076">
        <ele>2059.3</ele>
        <time>2021-07-13T10:48:57.75Z</time>
      </trkpt>
      <trkpt lat="44.83725" lon="6.20136">
        <ele>2070.4</ele>
        <time>2021-07-13T10:49:47.45Z</time>
      </trkpt>
      <trkpt lat="44.83712" lon="6.20175">
        <ele>2072.1</ele>
        <time>2021-07-13T10:50:22.38Z</time>
      </trkpt>
      <trkpt lat="44.83711" lon="6.2021">
        <ele>2076.7</ele>
        <time>2021-07-13T10:50:50.76Z</time>
      </trkpt>
      <trkpt lat="44.83719" lon="6.20237">
        <ele>2085.4</ele>
        <time>2021-07-13T10:51:14.48Z</time>
      </trkpt>
      <trkpt lat="44.83753" lon="6.202">
        <ele>2098</ele>
        <time>2021-07-13T10:52:03.56Z</time>
      </trkpt>
      <trkpt lat="44.83765" lon="6.20166">
        <ele>2097.7</ele>
        <time>2021-07-13T10:52:34.34Z</time>
      </trkpt>
      <trkpt lat="44.8378" lon="6.20152">
        <ele>2101.7</ele>
        <time>2021-07-13T10:52:54.89Z</time>
      </trkpt>
      <trkpt lat="44.83783" lon="6.2018">
        <ele>2110.2</ele>
        <time>2021-07-13T10:53:17.84Z</time>
      </trkpt>
      <trkpt lat="44.83805" lon="6.20152">
        <ele>2114.7</ele>
        <time>2021-07-13T10:53:51.71Z</time>
      </trkpt>
      <trkpt lat="44.83812" lon="6.20154">
        <ele>2118.9</ele>
        <time>2021-07-13T10:53:59.87Z</time>
      </trkpt>
      <trkpt lat="44.83829" lon="6.20138">
        <ele>2122.8</ele>
        <time>2021-07-13T10:54:23.23Z</time>
      </trkpt>
      <trkpt lat="44.83824" lon="6.20187">
        <ele>2133.8</ele>
        <time>2021-07-13T10:55:03.35Z</time>
      </trkpt>
      <trkpt lat="44.83849" lon="6.20164">
        <ele>2139.9</ele>
        <time>2021-07-13T10:55:37.46Z</time>
      </trkpt>
      <trkpt lat="44.83867" lon="6.20145">
        <ele>2141.6</ele>
        <time>2021-07-13T10:56:03.16Z</time>
      </trkpt>
      <trkpt lat="44.83881" lon="6.20119">
        <ele>2139.1</ele>
        <time>2021-07-13T10:56:29.62Z</time>
      </trkpt>
      <trkpt lat="44.83906" lon="6.20111">
        <ele>2146.9</ele>
        <time>2021-07-13T10:56:58.91Z</time>
      </trkpt>
      <trkpt lat="44.83942" lon="6.20111">
        <ele>2158.7</ele>
        <time>2021-07-13T10:57:40.06Z</time>
      </trkpt>
      <trkpt lat="44.8392" lon="6.20135">
        <ele>2160.5</ele>
        <time>2021-07-13T10:58:11.84Z</time>
      </trkpt>
      <trkpt lat="44.83906" lon="6.20175">
        <ele>2167.7</ele>
        <time>2021-07-13T10:58:47.99Z</time>
      </trkpt>
      <trkpt lat="44.83907" lon="6.20209">
        <ele>2177.3</ele>
        <time>2021-07-13T10:59:15.57Z</time>
      </trkpt>
      <trkpt lat="44.83897" lon="6.20237">
        <ele>2180.3</ele>
        <time>2021-07-13T10:59:40.98Z</time>
      </trkpt>
      <trkpt lat="44.83915" lon="6.20248">
        <ele>2191.7</ele>
        <time>2021-07-13T11:00:03.40Z</time>
      </trkpt>
      <trkpt lat="44.83924" lon="6.20272">
        <ele>2199.9</ele>
        <time>2021-07-13T11:00:25.40Z</time>
      </trkpt>
      <trkpt lat="44.83923" lon="6.20298">
        <ele>2203.9</ele>
        <time>2021-07-13T11:00:46.50Z</time>
      </trkpt>
      <trkpt lat="44.83915" lon="6.20324">
        <ele>2204.5</ele>
        <time>2021-07-13T11:01:09.47Z</time>
      </trkpt>
      <trkpt lat="44.83929" lon="6.20372">
        <ele>2212.4</ele>
        <time>2021-07-13T11:01:51.53Z</time>
      </trkpt>
      <trkpt lat="44.83929" lon="6.20398">
        <ele>2212.2</ele>
        <time>2021-07-13T11:02:12.60Z</time>
      </trkpt>
      <trkpt lat="44.83935" lon="6.20414">
        <ele>2215</ele>
        <time>2021-07-13T11:02:27.27Z</time>
      </trkpt>
      <trkpt lat="44.8395" lon="6.20422">
        <ele>2223</ele>
        <time>2021-07-13T11:02:45.59Z</time>
      </trkpt>
      <trkpt lat="44.83962" lon="6.20421">
        <ele>2228.8</ele>
        <time>2021-07-13T11:02:59.33Z</time>
      </trkpt>
      <trkpt lat="44.83959" lon="6.20412">
        <ele>2226.8</ele>
        <time>2021-07-13T11:03:07.39Z</time>
      </trkpt>
      <trkpt lat="44.83972" lon="6.20412">
        <ele>2233.2</ele>
        <time>2021-07-13T11:03:22.25Z</time>
      </trkpt>
      <trkpt lat="44.83988" lon="6.20398">
        <ele>2240.9</ele>
        <time>2021-07-13T11:03:43.77Z</time>
      </trkpt>
      <trkpt lat="44.83996" lon="6.20379">
        <ele>2244.6</ele>
        <time>2021-07-13T11:04:01.68Z</time>
      </trkpt>
      <trkpt lat="44.84002" lon="6.20358">
        <ele>2247.2</ele>
        <time>2021-07-13T11:04:20.02Z</time>
      </trkpt>
      <trkpt lat="44.84023" lon="6.20352">
        <ele>2256.7</ele>
        <time>2021-07-13T11:04:44.51Z</time>
      </trkpt>
      <trkpt lat="44.84029" lon="6.20366">
        <ele>2260</ele>
        <time>2021-07-13T11:04:57.77Z</time>
      </trkpt>
      <trkpt lat="44.84034" lon="6.20385">
        <ele>2263.3</ele>
        <time>2021-07-13T11:05:14.19Z</time>
      </trkpt>
      <trkpt lat="44.84031" lon="6.20431">
        <ele>2265.3</ele>
        <time>2021-07-13T11:05:51.62Z</time>
      </trkpt>
      <trkpt lat="44.84037" lon="6.20448">
        <ele>2270.7</ele>
        <time>2021-07-13T11:06:07.01Z</time>
      </trkpt>
      <trkpt lat="44.84049" lon="6.2043">
        <ele>2274.6</ele>
        <time>2021-07-13T11:06:27.03Z</time>
      </trkpt>
      <trkpt lat="44.84056" lon="6.20415">
        <ele>2276.4</ele>
        <time>2021-07-13T11:06:41.59Z</time>
      </trkpt>
      <trkpt lat="44.84058" lon="6.20437">
        <ele>2280.3</ele>
        <time>2021-07-13T11:06:59.56Z</time>
      </trkpt>
      <trkpt lat="44.84068" lon="6.20431">
        <ele>2284.8</ele>
        <time>2021-07-13T11:07:11.98Z</time>
      </trkpt>
      <trkpt lat="44.84074" lon="6.20422">
        <ele>2286.8</ele>
        <time>2021-07-13T11:07:21.99Z</time>
      </trkpt>
      <trkpt lat="44.84077" lon="6.2043">
        <ele>2289.4</ele>
        <time>2021-07-13T11:07:29.32Z</time>
      </trkpt>
      <trkpt lat="44.84091" lon="6.20403">
        <ele>2292.9</ele>
        <time>2021-07-13T11:07:56.43Z</time>
      </trkpt>
      <trkpt lat="44.84125" lon="6.20385">
        <ele>2305.3</ele>
        <time>2021-07-13T11:08:37.93Z</time>
      </trkpt>
      <trkpt lat="44.84129" lon="6.20372">
        <ele>2304.9</ele>
        <time>2021-07-13T11:08:49.42Z</time>
      </trkpt>
      <trkpt lat="44.84135" lon="6.20385">
        <ele>2309.5</ele>
        <time>2021-07-13T11:09:01.99Z</time>
      </trkpt>
      <trkpt lat="44.8414" lon="6.20373">
        <ele>2309.6</ele>
        <time>2021-07-13T11:09:13.27Z</time>
      </trkpt>
      <trkpt lat="44.8414" lon="6.20368">
        <ele>2308.8</ele>
        <time>2021-07-13T11:09:17.32Z</time>
      </trkpt>
      <trkpt lat="44.84144" lon="6.20368">
        <ele>2310.4</ele>
        <time>2021-07-13T11:09:21.89Z</time>
      </trkpt>
      <trkpt lat="44.84155" lon="6.20381">
        <ele>2317.3</ele>
        <time>2021-07-13T11:09:38.29Z</time>
      </trkpt>
      <trkpt lat="44.84165" lon="6.20364">
        <ele>2318.2</ele>
        <time>2021-07-13T11:09:56.19Z</time>
      </trkpt>
      <trkpt lat="44.84177" lon="6.20378">
        <ele>2323.4</ele>
        <time>2021-07-13T11:10:13.99Z</time>
      </trkpt>
      <trkpt lat="44.84178" lon="6.20391">
        <ele>2326.1</ele>
        <time>2021-07-13T11:10:24.59Z</time>
      </trkpt>
      <trkpt lat="44.84171" lon="6.20406">
        <ele>2327.7</ele>
        <time>2021-07-13T11:10:39.14Z</time>
      </trkpt>
      <trkpt lat="44.84176" lon="6.20396">
        <ele>2326.7</ele>
        <time>2021-07-13T11:10:49.05Z</time>
      </trkpt>
      <trkpt lat="44.84171" lon="6.20406">
        <ele>2327.7</ele>
        <time>2021-07-13T11:10:58.97Z</time>
      </trkpt>
      <trkpt lat="44.84182" lon="6.20403">
        <ele>2329</ele>
        <time>2021-07-13T11:11:11.77Z</time>
      </trkpt>
      <trkpt lat="44.84212" lon="6.20412">
        <ele>2335.8</ele>
        <time>2021-07-13T11:11:46.83Z</time>
      </trkpt>
      <trkpt lat="44.84206" lon="6.2043">
        <ele>2337.1</ele>
        <time>2021-07-13T11:12:02.94Z</time>
      </trkpt>
      <trkpt lat="44.84213" lon="6.20433">
        <ele>2338.7</ele>
        <time>2021-07-13T11:12:11.31Z</time>
      </trkpt>
      <trkpt lat="44.84217" lon="6.20428">
        <ele>2338.8</ele>
        <time>2021-07-13T11:12:17.41Z</time>
      </trkpt>
      <trkpt lat="44.8423" lon="6.20432">
        <ele>2341.5</ele>
        <time>2021-07-13T11:12:32.62Z</time>
      </trkpt>
      <trkpt lat="44.84244" lon="6.20433">
        <ele>2344.1</ele>
        <time>2021-07-13T11:12:48.64Z</time>
      </trkpt>
      <trkpt lat="44.84271" lon="6.20424">
        <ele>2345</ele>
        <time>2021-07-13T11:13:20.35Z</time>
      </trkpt>
      <trkpt lat="44.84292" lon="6.20421">
        <ele>2345.6</ele>
        <time>2021-07-13T11:13:44.47Z</time>
      </trkpt>
      <trkpt lat="44.8431" lon="6.20422">
        <ele>2346.7</ele>
        <time>2021-07-13T11:14:05.06Z</time>
      </trkpt>
      <trkpt lat="44.84331" lon="6.20378">
        <ele>2347.6</ele>
        <time>2021-07-13T11:14:48.04Z</time>
      </trkpt>
      <trkpt lat="44.84355" lon="6.20389">
        <ele>2354.6</ele>
        <time>2021-07-13T11:15:16.88Z</time>
      </trkpt>
      <trkpt lat="44.8437" lon="6.20385">
        <ele>2359.7</ele>
        <time>2021-07-13T11:15:34.33Z</time>
      </trkpt>
      <trkpt lat="44.84379" lon="6.204">
        <ele>2361.4</ele>
        <time>2021-07-13T11:15:50.25Z</time>
      </trkpt>
      <trkpt lat="44.84387" lon="6.20388">
        <ele>2364.9</ele>
        <time>2021-07-13T11:16:03.60Z</time>
      </trkpt>
      <trkpt lat="44.84399" lon="6.2041">
        <ele>2366.6</ele>
        <time>2021-07-13T11:16:26.09Z</time>
      </trkpt>
      <trkpt lat="44.84396" lon="6.20384">
        <ele>2368.2</ele>
        <time>2021-07-13T11:16:47.43Z</time>
      </trkpt>
      <trkpt lat="44.84392" lon="6.2037">
        <ele>2368.2</ele>
        <time>2021-07-13T11:16:59.66Z</time>
      </trkpt>
      <trkpt lat="44.84384" lon="6.20308">
        <ele>2372.7</ele>
        <time>2021-07-13T11:17:50.73Z</time>
      </trkpt>
      <trkpt lat="44.84384" lon="6.20259">
        <ele>2381</ele>
        <time>2021-07-13T11:18:30.43Z</time>
      </trkpt>
      <trkpt lat="44.8438" lon="6.20218">
        <ele>2383.1</ele>
        <time>2021-07-13T11:19:03.97Z</time>
      </trkpt>
      <trkpt lat="44.84379" lon="6.20191">
        <ele>2384.6</ele>
        <time>2021-07-13T11:19:25.88Z</time>
      </trkpt>
      <trkpt lat="44.84382" lon="6.20192">
        <ele>2386.6</ele>
        <time>2021-07-13T11:19:29.40Z</time>
      </trkpt>
      <trkpt lat="44.84391" lon="6.20204">
        <ele>2391.3</ele>
        <time>2021-07-13T11:19:43.56Z</time>
      </trkpt>
      <trkpt lat="44.84417" lon="6.20233">
        <ele>2402.5</ele>
        <time>2021-07-13T11:20:21.44Z</time>
      </trkpt>
      <trkpt lat="44.84415" lon="6.2021">
        <ele>2405.6</ele>
        <time>2021-07-13T11:20:40.22Z</time>
      </trkpt>
      <trkpt lat="44.84419" lon="6.20202">
        <ele>2409.5</ele>
        <time>2021-07-13T11:20:48.15Z</time>
      </trkpt>
      <trkpt lat="44.84442" lon="6.20229">
        <ele>2417.7</ele>
        <time>2021-07-13T11:21:22.35Z</time>
      </trkpt>
      <trkpt lat="44.84439" lon="6.20208">
        <ele>2419.8</ele>
        <time>2021-07-13T11:21:39.71Z</time>
      </trkpt>
      <trkpt lat="44.84446" lon="6.20195">
        <ele>2426.1</ele>
        <time>2021-07-13T11:21:52.94Z</time>
      </trkpt>
      <trkpt lat="44.84449" lon="6.20168">
        <ele>2432.6</ele>
        <time>2021-07-13T11:22:15.08Z</time>
      </trkpt>
      <trkpt lat="44.84452" lon="6.20163">
        <ele>2434.2</ele>
        <time>2021-07-13T11:22:20.39Z</time>
      </trkpt>
      <trkpt lat="44.8445" lon="6.20143">
        <ele>2431.3</ele>
        <time>2021-07-13T11:22:36.75Z</time>
      </trkpt>
      <trkpt lat="44.84454" lon="6.20126">
        <ele>2432.4</ele>
        <time>2021-07-13T11:22:51.27Z</time>
      </trkpt>
      <trkpt lat="44.84466" lon="6.20145">
        <ele>2441.3</ele>
        <time>2021-07-13T11:23:11.89Z</time>
      </trkpt>
      <trkpt lat="44.84466" lon="6.20135">
        <ele>2440.8</ele>
        <time>2021-07-13T11:23:19.99Z</time>
      </trkpt>
      <trkpt lat="44.84471" lon="6.20125">
        <ele>2443.7</ele>
        <time>2021-07-13T11:23:29.91Z</time>
      </trkpt>
      <trkpt lat="44.84476" lon="6.20135">
        <ele>2447.2</ele>
        <time>2021-07-13T11:23:39.82Z</time>
      </trkpt>
      <trkpt lat="44.84484" lon="6.20136">
        <ele>2452.3</ele>
        <time>2021-07-13T11:23:49Z</time>
      </trkpt>
      <trkpt lat="44.8448" lon="6.20132">
        <ele>2449.7</ele>
        <time>2021-07-13T11:23:54.60Z</time>
      </trkpt>
      <trkpt lat="44.84481" lon="6.20122">
        <ele>2450.3</ele>
        <time>2021-07-13T11:24:02.79Z</time>
      </trkpt>
      <trkpt lat="44.84496" lon="6.20135">
        <ele>2460</ele>
        <time>2021-07-13T11:24:22.91Z</time>
      </trkpt>
      <trkpt lat="44.84505" lon="6.2015">
        <ele>2464.9</ele>
        <time>2021-07-13T11:24:38.83Z</time>
      </trkpt>
      <trkpt lat="44.8451" lon="6.20171">
        <ele>2466.6</ele>
        <time>2021-07-13T11:24:56.78Z</time>
      </trkpt>
      <trkpt lat="44.84515" lon="6.20186">
        <ele>2467.6</ele>
        <time>2021-07-13T11:25:10.21Z</time>
      </trkpt>
      <trkpt lat="44.84522" lon="6.20135">
        <ele>2476.3</ele>
        <time>2021-07-13T11:25:52.30Z</time>
      </trkpt>
      <trkpt lat="44.84529" lon="6.20125">
        <ele>2481.3</ele>
        <time>2021-07-13T11:26:03.69Z</time>
      </trkpt>
      <trkpt lat="44.84528" lon="6.20105">
        <ele>2481.7</ele>
        <time>2021-07-13T11:26:19.94Z</time>
      </trkpt>
      <trkpt lat="44.84534" lon="6.20101">
        <ele>2485.7</ele>
        <time>2021-07-13T11:26:27.52Z</time>
      </trkpt>
      <trkpt lat="44.84539" lon="6.20073">
        <ele>2490.1</ele>
        <time>2021-07-13T11:26:50.92Z</time>
      </trkpt>
      <trkpt lat="44.84547" lon="6.20055">
        <ele>2495.8</ele>
        <time>2021-07-13T11:27:08.13Z</time>
      </trkpt>
      <trkpt lat="44.84549" lon="6.20036">
        <ele>2497.7</ele>
        <time>2021-07-13T11:27:23.70Z</time>
      </trkpt>
      <trkpt lat="44.84552" lon="6.2002">
        <ele>2500.3</ele>
        <time>2021-07-13T11:27:37.11Z</time>
      </trkpt>
      <trkpt lat="44.8458" lon="6.20087">
        <ele>2515.7</ele>
        <time>2021-07-13T11:28:40.13Z</time>
      </trkpt>
      <trkpt lat="44.84583" lon="6.20072">
        <ele>2518.3</ele>
        <time>2021-07-13T11:28:52.75Z</time>
      </trkpt>
      <trkpt lat="44.84598" lon="6.20098">
        <ele>2518.5</ele>
        <time>2021-07-13T11:29:19.92Z</time>
      </trkpt>
      <trkpt lat="44.846" lon="6.20078">
        <ele>2518.3</ele>
        <time>2021-07-13T11:29:36.28Z</time>
      </trkpt>
      <trkpt lat="44.8461" lon="6.20095">
        <ele>2519.3</ele>
        <time>2021-07-13T11:29:54.18Z</time>
      </trkpt>
      <trkpt lat="44.84618" lon="6.20103">
        <ele>2521.2</ele>
        <time>2021-07-13T11:30:05.39Z</time>
      </trkpt>
      <trkpt lat="44.84621" lon="6.2011">
        <ele>2522.9</ele>
        <time>2021-07-13T11:30:12.02Z</time>
      </trkpt>
      <trkpt lat="44.84623" lon="6.20109">
        <ele>2523.1</ele>
        <time>2021-07-13T11:30:14.44Z</time>
      </trkpt>
      <trkpt lat="44.84618" lon="6.20061">
        <ele>2519.1</ele>
        <time>2021-07-13T11:30:53.75Z</time>
      </trkpt>
      <trkpt lat="44.84619" lon="6.20056">
        <ele>2519.3</ele>
        <time>2021-07-13T11:30:57.96Z</time>
      </trkpt>
      <trkpt lat="44.84649" lon="6.20092">
        <ele>2521.2</ele>
        <time>2021-07-13T11:31:42.98Z</time>
      </trkpt>
      <trkpt lat="44.84651" lon="6.20096">
        <ele>2522.8</ele>
        <time>2021-07-13T11:31:46.94Z</time>
      </trkpt>
      <trkpt lat="44.84657" lon="6.20096">
        <ele>2523.3</ele>
        <time>2021-07-13T11:31:53.80Z</time>
      </trkpt>
      <trkpt lat="44.84662" lon="6.20089">
        <ele>2520.5</ele>
        <time>2021-07-13T11:32:01.85Z</time>
      </trkpt>
      <trkpt lat="44.84668" lon="6.2009">
        <ele>2558</ele>
        <time>2021-07-13T11:32:08.76Z</time>
      </trkpt>
      <trkpt lat="44.84674" lon="6.20084">
        <ele>2558</ele>
        <time>2021-07-13T11:32:17.16Z</time>
      </trkpt>
      <trkpt lat="44.8468" lon="6.20078">
        <ele>2573.3</ele>
        <time>2021-07-13T11:32:25.57Z</time>
      </trkpt>
      <trkpt lat="44.84678" lon="6.20067">
        <ele>2573.5</ele>
        <time>2021-07-13T11:32:34.77Z</time>
      </trkpt>
      <trkpt lat="44.84681" lon="6.20065">
        <ele>2574.8</ele>
        <time>2021-07-13T11:32:38.56Z</time>
      </trkpt>
      <trkpt lat="44.84693" lon="6.20077">
        <ele>2578.6</ele>
        <time>2021-07-13T11:32:55.37Z</time>
      </trkpt>
      <trkpt lat="44.84695" lon="6.20099">
        <ele>2558</ele>
        <time>2021-07-13T11:33:13.35Z</time>
      </trkpt>
      <trkpt lat="44.84702" lon="6.20123">
        <ele>2558</ele>
        <time>2021-07-13T11:33:34.37Z</time>
      </trkpt>
      <trkpt lat="44.84708" lon="6.20135">
        <ele>2558</ele>
        <time>2021-07-13T11:33:46.27Z</time>
      </trkpt>
      <trkpt lat="44.84714" lon="6.20139">
        <ele>2558</ele>
        <time>2021-07-13T11:33:53.86Z</time>
      </trkpt>
      <trkpt lat="44.84713" lon="6.20119">
        <ele>2558</ele>
        <time>2021-07-13T11:34:10.10Z</time>
      </trkpt>
      <trkpt lat="44.84722" lon="6.20123">
        <ele>2558</ele>
        <time>2021-07-13T11:34:20.89Z</time>
      </trkpt>
      <trkpt lat="44.8473" lon="6.2009">
        <ele>2558</ele>
        <time>2021-07-13T11:34:49.15Z</time>
      </trkpt>
      <trkpt lat="44.84753" lon="6.20036">
        <ele>2609.8</ele>
        <time>2021-07-13T11:35:40.19Z</time>
      </trkpt>
      <trkpt lat="44.84762" lon="6.19993">
        <ele>2615.3</ele>
        <time>2021-07-13T11:36:16.52Z</time>
      </trkpt>
      <trkpt lat="44.84762" lon="6.19978">
        <ele>2615.1</ele>
        <time>2021-07-13T11:36:28.67Z</time>
      </trkpt>
      <trkpt lat="44.84777" lon="6.19945">
        <ele>2626.4</ele>
        <time>2021-07-13T11:37:00.43Z</time>
      </trkpt>
      <trkpt lat="44.84789" lon="6.19899">
        <ele>2634.3</ele>
        <time>2021-07-13T11:37:40.15Z</time>
      </trkpt>
      <trkpt lat="44.84795" lon="6.19865">
        <ele>2638.5</ele>
        <time>2021-07-13T11:38:08.54Z</time>
      </trkpt>
      <trkpt lat="44.84783" lon="6.19821">
        <ele>2639.8</ele>
        <time>2021-07-13T11:38:46.74Z</time>
      </trkpt>
      <trkpt lat="44.84755" lon="6.19775">
        <ele>2643.2</ele>
        <time>2021-07-13T11:39:35.86Z</time>
      </trkpt>
      <trkpt lat="44.8473" lon="6.19721">
        <ele>2657</ele>
        <time>2021-07-13T11:40:28.12Z</time>
      </trkpt>
      <trkpt lat="44.84745" lon="6.1973">
        <ele>2658.3</ele>
        <time>2021-07-13T11:40:46.75Z</time>
      </trkpt>
      <trkpt lat="44.84737" lon="6.1969">
        <ele>2670.3</ele>
        <time>2021-07-13T11:41:20.42Z</time>
      </trkpt>
      <trkpt lat="44.84737" lon="6.19673">
        <ele>2677</ele>
        <time>2021-07-13T11:41:34.20Z</time>
      </trkpt>
      <trkpt lat="44.8475" lon="6.19672">
        <ele>2677.3</ele>
        <time>2021-07-13T11:41:49.08Z</time>
      </trkpt>
      <trkpt lat="44.84766" lon="6.197">
        <ele>2681.3</ele>
        <time>2021-07-13T11:42:18.22Z</time>
      </trkpt>
      <trkpt lat="44.8476" lon="6.19665">
        <ele>2686.8</ele>
        <time>2021-07-13T11:42:47.39Z</time>
      </trkpt>
      <trkpt lat="44.84765" lon="6.19666">
        <ele>2690.8</ele>
        <time>2021-07-13T11:42:53.16Z</time>
      </trkpt>
      <trkpt lat="44.8477" lon="6.19679">
        <ele>2691.2</ele>
        <time>2021-07-13T11:43:05.15Z</time>
      </trkpt>
      <trkpt lat="44.84778" lon="6.19687">
        <ele>2695.5</ele>
        <time>2021-07-13T11:43:16.36Z</time>
      </trkpt>
      <trkpt lat="44.84779" lon="6.19676">
        <ele>2700.2</ele>
        <time>2021-07-13T11:43:25.34Z</time>
      </trkpt>
      <trkpt lat="44.84773" lon="6.19657">
        <ele>2694.7</ele>
        <time>2021-07-13T11:43:42.19Z</time>
      </trkpt>
      <trkpt lat="44.84776" lon="6.19652">
        <ele>2695.2</ele>
        <time>2021-07-13T11:43:47.50Z</time>
      </trkpt>
      <trkpt lat="44.84774" lon="6.19646">
        <ele>2692.3</ele>
        <time>2021-07-13T11:43:52.87Z</time>
      </trkpt>
      <trkpt lat="44.8477" lon="6.19649">
        <ele>2690.9</ele>
        <time>2021-07-13T11:43:58.05Z</time>
      </trkpt>
      <trkpt lat="44.84767" lon="6.19644">
        <ele>2688.3</ele>
        <time>2021-07-13T11:44:03.36Z</time>
      </trkpt>
      <trkpt lat="44.84773" lon="6.19641">
        <ele>2690.5</ele>
        <time>2021-07-13T11:44:10.63Z</time>
      </trkpt>
      <trkpt lat="44.84777" lon="6.19643">
        <ele>2693</ele>
        <time>2021-07-13T11:44:15.48Z</time>
      </trkpt>
      <trkpt lat="44.84787" lon="6.19638">
        <ele>2701.3</ele>
        <time>2021-07-13T11:44:27.61Z</time>
      </trkpt>
      <trkpt lat="44.84794" lon="6.19625">
        <ele>2699.1</ele>
        <time>2021-07-13T11:44:40.84Z</time>
      </trkpt>
      <trkpt lat="44.84799" lon="6.19592">
        <ele>2683.1</ele>
        <time>2021-07-13T11:45:08.18Z</time>
      </trkpt>
      <trkpt lat="44.848" lon="6.1958">
        <ele>2678.1</ele>
        <time>2021-07-13T11:45:17.97Z</time>
      </trkpt>
      <trkpt lat="44.84798" lon="6.19565">
        <ele>2672.6</ele>
        <time>2021-07-13T11:45:30.34Z</time>
      </trkpt>
      <trkpt lat="44.84801" lon="6.19552">
        <ele>2671.3</ele>
        <time>2021-07-13T11:45:41.41Z</time>
      </trkpt>
      <trkpt lat="44.84797" lon="6.19542">
        <ele>2666.8</ele>
        <time>2021-07-13T11:45:50.72Z</time>
      </trkpt>
      <trkpt lat="44.84796" lon="6.19523">
        <ele>2662.6</ele>
        <time>2021-07-13T11:46:06.15Z</time>
      </trkpt>
      <trkpt lat="44.84772" lon="6.19546">
        <ele>2652.2</ele>
        <time>2021-07-13T11:46:39.31Z</time>
      </trkpt>
      <trkpt lat="44.84767" lon="6.19557">
        <ele>2650.7</ele>
        <time>2021-07-13T11:46:49.90Z</time>
      </trkpt>
      <trkpt lat="44.84758" lon="6.19514">
        <ele>2641.9</ele>
        <time>2021-07-13T11:47:26.23Z</time>
      </trkpt>
      <trkpt lat="44.84745" lon="6.19497">
        <ele>2634.4</ele>
        <time>2021-07-13T11:47:46.49Z</time>
      </trkpt>
      <trkpt lat="44.84743" lon="6.1948">
        <ele>2629.5</ele>
        <time>2021-07-13T11:48:00.45Z</time>
      </trkpt>
      <trkpt lat="44.84746" lon="6.19463">
        <ele>2626.9</ele>
        <time>2021-07-13T11:48:14.65Z</time>
      </trkpt>
      <trkpt lat="44.84745" lon="6.19453">
        <ele>2624.1</ele>
        <time>2021-07-13T11:48:22.83Z</time>
      </trkpt>
      <trkpt lat="44.84725" lon="6.19466">
        <ele>2618.1</ele>
        <time>2021-07-13T11:48:48Z</time>
      </trkpt>
      <trkpt lat="44.84706" lon="6.19481">
        <ele>2614.4</ele>
        <time>2021-07-13T11:49:12.88Z</time>
      </trkpt>
      <trkpt lat="44.84703" lon="6.19477">
        <ele>2613</ele>
        <time>2021-07-13T11:49:17.60Z</time>
      </trkpt>
      <trkpt lat="44.847" lon="6.1946">
        <ele>2609.8</ele>
        <time>2021-07-13T11:49:31.80Z</time>
      </trkpt>
      <trkpt lat="44.84698" lon="6.19431">
        <ele>2601.4</ele>
        <time>2021-07-13T11:49:55.41Z</time>
      </trkpt>
      <trkpt lat="44.84708" lon="6.19419">
        <ele>2600.7</ele>
        <time>2021-07-13T11:50:10.41Z</time>
      </trkpt>
      <trkpt lat="44.84724" lon="6.19384">
        <ele>2542</ele>
        <time>2021-07-13T11:50:44.15Z</time>
      </trkpt>
      <trkpt lat="44.84736" lon="6.19378">
        <ele>2542</ele>
        <time>2021-07-13T11:50:58.70Z</time>
      </trkpt>
      <trkpt lat="44.84755" lon="6.19353">
        <ele>2590.7</ele>
        <time>2021-07-13T11:51:28.40Z</time>
      </trkpt>
      <trkpt lat="44.84755" lon="6.19346">
        <ele>2588.9</ele>
        <time>2021-07-13T11:51:34.07Z</time>
      </trkpt>
      <trkpt lat="44.84753" lon="6.19334">
        <ele>2584.8</ele>
        <time>2021-07-13T11:51:44.06Z</time>
      </trkpt>
      <trkpt lat="44.84755" lon="6.19321">
        <ele>2581.6</ele>
        <time>2021-07-13T11:51:54.84Z</time>
      </trkpt>
      <trkpt lat="44.84747" lon="6.19327">
        <ele>2540</ele>
        <time>2021-07-13T11:52:05.19Z</time>
      </trkpt>
      <trkpt lat="44.84732" lon="6.19348">
        <ele>2542</ele>
        <time>2021-07-13T11:52:29.35Z</time>
      </trkpt>
      <trkpt lat="44.84729" lon="6.19343">
        <ele>2542</ele>
        <time>2021-07-13T11:52:34.66Z</time>
      </trkpt>
      <trkpt lat="44.84735" lon="6.19304">
        <ele>2532.8</ele>
        <time>2021-07-13T11:53:06.99Z</time>
      </trkpt>
      <trkpt lat="44.84725" lon="6.19308">
        <ele>2534.1</ele>
        <time>2021-07-13T11:53:18.87Z</time>
      </trkpt>
      <trkpt lat="44.84713" lon="6.1932">
        <ele>2537.8</ele>
        <time>2021-07-13T11:53:35.68Z</time>
      </trkpt>
      <trkpt lat="44.84711" lon="6.19317">
        <ele>2536.9</ele>
        <time>2021-07-13T11:53:39.02Z</time>
      </trkpt>
      <trkpt lat="44.84714" lon="6.19278">
        <ele>2524.7</ele>
        <time>2021-07-13T11:54:10.81Z</time>
      </trkpt>
      <trkpt lat="44.8468" lon="6.19297">
        <ele>2530.7</ele>
        <time>2021-07-13T11:54:52.60Z</time>
      </trkpt>
      <trkpt lat="44.84664" lon="6.19301">
        <ele>2530.5</ele>
        <time>2021-07-13T11:55:11.17Z</time>
      </trkpt>
      <trkpt lat="44.84669" lon="6.19288">
        <ele>2527.9</ele>
        <time>2021-07-13T11:55:23.16Z</time>
      </trkpt>
      <trkpt lat="44.84649" lon="6.19287">
        <ele>2518.3</ele>
        <time>2021-07-13T11:55:46.03Z</time>
      </trkpt>
      <trkpt lat="44.84634" lon="6.19291">
        <ele>2511.7</ele>
        <time>2021-07-13T11:56:03.47Z</time>
      </trkpt>
      <trkpt lat="44.84598" lon="6.19328">
        <ele>2504.1</ele>
        <time>2021-07-13T11:56:54.38Z</time>
      </trkpt>
      <trkpt lat="44.84592" lon="6.19341">
        <ele>2506.1</ele>
        <time>2021-07-13T11:57:06.95Z</time>
      </trkpt>
      <trkpt lat="44.84567" lon="6.19347">
        <ele>2497.8</ele>
        <time>2021-07-13T11:57:35.93Z</time>
      </trkpt>
      <trkpt lat="44.84536" lon="6.19376">
        <ele>2498.1</ele>
        <time>2021-07-13T11:58:18.45Z</time>
      </trkpt>
      <trkpt lat="44.84538" lon="6.19307">
        <ele>2468.6</ele>
        <time>2021-07-13T11:59:14.40Z</time>
      </trkpt>
      <trkpt lat="44.84506" lon="6.19336">
        <ele>2465.8</ele>
        <time>2021-07-13T11:59:57.87Z</time>
      </trkpt>
      <trkpt lat="44.84443" lon="6.19345">
        <ele>2436.5</ele>
        <time>2021-07-13T12:01:10.24Z</time>
      </trkpt>
      <trkpt lat="44.84447" lon="6.19327">
        <ele>2430.6</ele>
        <time>2021-07-13T12:01:25.53Z</time>
      </trkpt>
      <trkpt lat="44.84418" lon="6.19329">
        <ele>2415.5</ele>
        <time>2021-07-13T12:01:58.71Z</time>
      </trkpt>
      <trkpt lat="44.84423" lon="6.19311">
        <ele>2413.1</ele>
        <time>2021-07-13T12:02:14.37Z</time>
      </trkpt>
      <trkpt lat="44.84434" lon="6.19299">
        <ele>2415</ele>
        <time>2021-07-13T12:02:30.27Z</time>
      </trkpt>
      <trkpt lat="44.84451" lon="6.19276">
        <ele>2415.4</ele>
        <time>2021-07-13T12:02:57.19Z</time>
      </trkpt>
      <trkpt lat="44.84423" lon="6.19278">
        <ele>2403.6</ele>
        <time>2021-07-13T12:03:29.23Z</time>
      </trkpt>
      <trkpt lat="44.84369" lon="6.19257">
        <ele>2379.5</ele>
        <time>2021-07-13T12:04:33.25Z</time>
      </trkpt>
      <trkpt lat="44.84355" lon="6.19259">
        <ele>2375.8</ele>
        <time>2021-07-13T12:04:49.33Z</time>
      </trkpt>
      <trkpt lat="44.8436" lon="6.19235">
        <ele>2367.1</ele>
        <time>2021-07-13T12:05:09.60Z</time>
      </trkpt>
      <trkpt lat="44.84382" lon="6.19204">
        <ele>2360.5</ele>
        <time>2021-07-13T12:05:45.14Z</time>
      </trkpt>
      <trkpt lat="44.8439" lon="6.19183">
        <ele>2353.8</ele>
        <time>2021-07-13T12:06:04.46Z</time>
      </trkpt>
      <trkpt lat="44.84339" lon="6.19184">
        <ele>2336.1</ele>
        <time>2021-07-13T12:07:02.75Z</time>
      </trkpt>
      <trkpt lat="44.84347" lon="6.19171">
        <ele>2332.9</ele>
        <time>2021-07-13T12:07:16.70Z</time>
      </trkpt>
      <trkpt lat="44.84339" lon="6.19184">
        <ele>2336.1</ele>
        <time>2021-07-13T12:07:30.65Z</time>
      </trkpt>
      <trkpt lat="44.84355" lon="6.19184">
        <ele>2341.8</ele>
        <time>2021-07-13T12:07:48.93Z</time>
      </trkpt>
      <trkpt lat="44.84339" lon="6.19184">
        <ele>2336.1</ele>
        <time>2021-07-13T12:08:07.22Z</time>
      </trkpt>
      <trkpt lat="44.84347" lon="6.19171">
        <ele>2332.9</ele>
        <time>2021-07-13T12:08:21.17Z</time>
      </trkpt>
      <trkpt lat="44.84358" lon="6.19165">
        <ele>2334.1</ele>
        <time>2021-07-13T12:08:34.65Z</time>
      </trkpt>
      <trkpt lat="44.8437" lon="6.19152">
        <ele>2332.1</ele>
        <time>2021-07-13T12:08:51.94Z</time>
      </trkpt>
      <trkpt lat="44.84372" lon="6.19144">
        <ele>2328.8</ele>
        <time>2021-07-13T12:08:58.81Z</time>
      </trkpt>
      <trkpt lat="44.84368" lon="6.19141">
        <ele>2326.1</ele>
        <time>2021-07-13T12:09:03.99Z</time>
      </trkpt>
      <trkpt lat="44.84369" lon="6.19138">
        <ele>2324.9</ele>
        <time>2021-07-13T12:09:06.68Z</time>
      </trkpt>
      <trkpt lat="44.84376" lon="6.19127">
        <ele>2321.8</ele>
        <time>2021-07-13T12:09:18.65Z</time>
      </trkpt>
      <trkpt lat="44.84397" lon="6.19112">
        <ele>2320.6</ele>
        <time>2021-07-13T12:09:45.56Z</time>
      </trkpt>
      <trkpt lat="44.84404" lon="6.19104">
        <ele>2318.5</ele>
        <time>2021-07-13T12:09:55.85Z</time>
      </trkpt>
      <trkpt lat="44.84422" lon="6.19098">
        <ele>2321.4</ele>
        <time>2021-07-13T12:10:16.99Z</time>
      </trkpt>
      <trkpt lat="44.84426" lon="6.19096">
        <ele>2322.3</ele>
        <time>2021-07-13T12:10:21.84Z</time>
      </trkpt>
      <trkpt lat="44.84434" lon="6.19081">
        <ele>2318.4</ele>
        <time>2021-07-13T12:10:37.05Z</time>
      </trkpt>
      <trkpt lat="44.84453" lon="6.19071">
        <ele>2322.9</ele>
        <time>2021-07-13T12:11:00.23Z</time>
      </trkpt>
      <trkpt lat="44.84468" lon="6.19053">
        <ele>2321.3</ele>
        <time>2021-07-13T12:11:22.74Z</time>
      </trkpt>
      <trkpt lat="44.84481" lon="6.19043">
        <ele>2321.9</ele>
        <time>2021-07-13T12:11:39.66Z</time>
      </trkpt>
      <trkpt lat="44.84487" lon="6.1903">
        <ele>2317.8</ele>
        <time>2021-07-13T12:11:52.23Z</time>
      </trkpt>
      <trkpt lat="44.84502" lon="6.19009">
        <ele>2313.1</ele>
        <time>2021-07-13T12:12:16.38Z</time>
      </trkpt>
      <trkpt lat="44.84502" lon="6.19003">
        <ele>2310</ele>
        <time>2021-07-13T12:12:21.24Z</time>
      </trkpt>
      <trkpt lat="44.84498" lon="6.18993">
        <ele>2305.1</ele>
        <time>2021-07-13T12:12:30.55Z</time>
      </trkpt>
      <trkpt lat="44.84501" lon="6.18979">
        <ele>2303.9</ele>
        <time>2021-07-13T12:12:42.40Z</time>
      </trkpt>
      <trkpt lat="44.84507" lon="6.18969">
        <ele>2306.1</ele>
        <time>2021-07-13T12:12:53.01Z</time>
      </trkpt>
      <trkpt lat="44.84523" lon="6.18954">
        <ele>2314</ele>
        <time>2021-07-13T12:13:14.97Z</time>
      </trkpt>
      <trkpt lat="44.84524" lon="6.1895">
        <ele>2313.8</ele>
        <time>2021-07-13T12:13:18.41Z</time>
      </trkpt>
      <trkpt lat="44.84523" lon="6.18945">
        <ele>2312.2</ele>
        <time>2021-07-13T12:13:22.62Z</time>
      </trkpt>
      <trkpt lat="44.84519" lon="6.18941">
        <ele>2308.8</ele>
        <time>2021-07-13T12:13:28.22Z</time>
      </trkpt>
      <trkpt lat="44.845" lon="6.18931">
        <ele>2294.6</ele>
        <time>2021-07-13T12:13:51.40Z</time>
      </trkpt>
      <trkpt lat="44.84498" lon="6.18929">
        <ele>2293.4</ele>
        <time>2021-07-13T12:13:54.20Z</time>
      </trkpt>
      <trkpt lat="44.84497" lon="6.18918">
        <ele>2290.9</ele>
        <time>2021-07-13T12:14:03.19Z</time>
      </trkpt>
      <trkpt lat="44.845" lon="6.18907">
        <ele>2289.2</ele>
        <time>2021-07-13T12:14:12.74Z</time>
      </trkpt>
      <trkpt lat="44.84516" lon="6.18869">
        <ele>2288.2</ele>
        <time>2021-07-13T12:14:48.55Z</time>
      </trkpt>
      <trkpt lat="44.84548" lon="6.18829">
        <ele>2296.3</ele>
        <time>2021-07-13T12:15:37.42Z</time>
      </trkpt>
      <trkpt lat="44.84547" lon="6.18781">
        <ele>2283.2</ele>
        <time>2021-07-13T12:16:16.33Z</time>
      </trkpt>
      <trkpt lat="44.84556" lon="6.18734">
        <ele>2278</ele>
        <time>2021-07-13T12:16:55.78Z</time>
      </trkpt>
      <trkpt lat="44.84556" lon="6.18709">
        <ele>2272.9</ele>
        <time>2021-07-13T12:17:16.03Z</time>
      </trkpt>
      <trkpt lat="44.84558" lon="6.18689">
        <ele>2270.2</ele>
        <time>2021-07-13T12:17:32.40Z</time>
      </trkpt>
      <trkpt lat="44.84582" lon="6.18608">
        <ele>2263.9</ele>
        <time>2021-07-13T12:18:43.53Z</time>
      </trkpt>
      <trkpt lat="44.846" lon="6.18545">
        <ele>2262.1</ele>
        <time>2021-07-13T12:19:38.57Z</time>
      </trkpt>
      <trkpt lat="44.84641" lon="6.18457">
        <ele>2273.9</ele>
        <time>2021-07-13T12:21:03.89Z</time>
      </trkpt>
      <trkpt lat="44.84654" lon="6.18348">
        <ele>2270.4</ele>
        <time>2021-07-13T12:22:33.46Z</time>
      </trkpt>
      <trkpt lat="44.84668" lon="6.18318">
        <ele>2280.1</ele>
        <time>2021-07-13T12:23:02.56Z</time>
      </trkpt>
      <trkpt lat="44.84672" lon="6.18244">
        <ele>2289.2</ele>
        <time>2021-07-13T12:24:02.69Z</time>
      </trkpt>
      <trkpt lat="44.8465" lon="6.18205">
        <ele>2280.3</ele>
        <time>2021-07-13T12:24:43.08Z</time>
      </trkpt>
      <trkpt lat="44.84649" lon="6.18092">
        <ele>2285.1</ele>
        <time>2021-07-13T12:26:14.65Z</time>
      </trkpt>
      <trkpt lat="44.84658" lon="6.18037">
        <ele>2296</ele>
        <time>2021-07-13T12:27:00.38Z</time>
      </trkpt>
      <trkpt lat="44.84605" lon="6.17965">
        <ele>2273.5</ele>
        <time>2021-07-13T12:28:24.48Z</time>
      </trkpt>
      <trkpt lat="44.84593" lon="6.17922">
        <ele>2276.6</ele>
        <time>2021-07-13T12:29:01.93Z</time>
      </trkpt>
      <trkpt lat="44.84586" lon="6.17855">
        <ele>2285.2</ele>
        <time>2021-07-13T12:29:56.80Z</time>
      </trkpt>
      <trkpt lat="44.84593" lon="6.17824">
        <ele>2298.8</ele>
        <time>2021-07-13T12:30:23.16Z</time>
      </trkpt>
      <trkpt lat="44.84569" lon="6.17787">
        <ele>2291.9</ele>
        <time>2021-07-13T12:31:03.80Z</time>
      </trkpt>
      <trkpt lat="44.84556" lon="6.17756">
        <ele>2291.3</ele>
        <time>2021-07-13T12:31:32.98Z</time>
      </trkpt>
      <trkpt lat="44.8453" lon="6.17712">
        <ele>2275.8</ele>
        <time>2021-07-13T12:32:19.39Z</time>
      </trkpt>
      <trkpt lat="44.84529" lon="6.17645">
        <ele>2286.1</ele>
        <time>2021-07-13T12:33:13.70Z</time>
      </trkpt>
      <trkpt lat="44.84524" lon="6.1759">
        <ele>2292.4</ele>
        <time>2021-07-13T12:33:58.63Z</time>
      </trkpt>
      <trkpt lat="44.8451" lon="6.17566">
        <ele>2282.6</ele>
        <time>2021-07-13T12:34:23.81Z</time>
      </trkpt>
      <trkpt lat="44.84494" lon="6.17495">
        <ele>2280.2</ele>
        <time>2021-07-13T12:35:24.18Z</time>
      </trkpt>
      <trkpt lat="44.84494" lon="6.17457">
        <ele>2291.1</ele>
        <time>2021-07-13T12:35:54.97Z</time>
      </trkpt>
      <trkpt lat="44.84479" lon="6.17414">
        <ele>2292.7</ele>
        <time>2021-07-13T12:36:33.80Z</time>
      </trkpt>
      <trkpt lat="44.8446" lon="6.17374">
        <ele>2294.1</ele>
        <time>2021-07-13T12:37:12.82Z</time>
      </trkpt>
      <trkpt lat="44.84439" lon="6.17341">
        <ele>2290.6</ele>
        <time>2021-07-13T12:37:48.75Z</time>
      </trkpt>
      <trkpt lat="44.84416" lon="6.17282">
        <ele>2298.5</ele>
        <time>2021-07-13T12:38:43.31Z</time>
      </trkpt>
      <trkpt lat="44.84405" lon="6.17243">
        <ele>2310.5</ele>
        <time>2021-07-13T12:39:17.32Z</time>
      </trkpt>
      <trkpt lat="44.84372" lon="6.17195">
        <ele>2313.6</ele>
        <time>2021-07-13T12:40:11.49Z</time>
      </trkpt>
      <trkpt lat="44.84359" lon="6.17167">
        <ele>2317.4</ele>
        <time>2021-07-13T12:40:38.61Z</time>
      </trkpt>
      <trkpt lat="44.84348" lon="6.17131">
        <ele>2325.3</ele>
        <time>2021-07-13T12:41:10.38Z</time>
      </trkpt>
      <trkpt lat="44.84309" lon="6.17066">
        <ele>2343.8</ele>
        <time>2021-07-13T12:42:19.38Z</time>
      </trkpt>
      <trkpt lat="44.84296" lon="6.1703">
        <ele>2356.8</ele>
        <time>2021-07-13T12:42:52.12Z</time>
      </trkpt>
      <trkpt lat="44.84352" lon="6.17063">
        <ele>2354.5</ele>
        <time>2021-07-13T12:44:01.48Z</time>
      </trkpt>
      <trkpt lat="44.84343" lon="6.17045">
        <ele>2357.1</ele>
        <time>2021-07-13T12:44:19.33Z</time>
      </trkpt>
      <trkpt lat="44.84315" lon="6.16985">
        <ele>2375.6</ele>
        <time>2021-07-13T12:45:17.53Z</time>
      </trkpt>
      <trkpt lat="44.84298" lon="6.16986">
        <ele>2373.9</ele>
        <time>2021-07-13T12:45:36.98Z</time>
      </trkpt>
      <trkpt lat="44.84286" lon="6.16993">
        <ele>2369.9</ele>
        <time>2021-07-13T12:45:51.82Z</time>
      </trkpt>
      <trkpt lat="44.84272" lon="6.16983">
        <ele>2373.4</ele>
        <time>2021-07-13T12:46:09.75Z</time>
      </trkpt>
      <trkpt lat="44.84307" lon="6.16966">
        <ele>2384.3</ele>
        <time>2021-07-13T12:46:52.06Z</time>
      </trkpt>
      <trkpt lat="44.84324" lon="6.16965">
        <ele>2386.5</ele>
        <time>2021-07-13T12:47:11.50Z</time>
      </trkpt>
      <trkpt lat="44.84306" lon="6.16954">
        <ele>2390</ele>
        <time>2021-07-13T12:47:33.92Z</time>
      </trkpt>
      <trkpt lat="44.84286" lon="6.16939">
        <ele>2394.4</ele>
        <time>2021-07-13T12:47:59.81Z</time>
      </trkpt>
      <trkpt lat="44.84273" lon="6.1694">
        <ele>2392</ele>
        <time>2021-07-13T12:48:14.69Z</time>
      </trkpt>
      <trkpt lat="44.84258" lon="6.16938">
        <ele>2390.7</ele>
        <time>2021-07-13T12:48:31.91Z</time>
      </trkpt>
      <trkpt lat="44.84278" lon="6.16923">
        <ele>2400.3</ele>
        <time>2021-07-13T12:48:57.80Z</time>
      </trkpt>
      <trkpt lat="44.84269" lon="6.16922">
        <ele>2399.1</ele>
        <time>2021-07-13T12:49:08.12Z</time>
      </trkpt>
      <trkpt lat="44.84252" lon="6.16911">
        <ele>2398.9</ele>
        <time>2021-07-13T12:49:29.49Z</time>
      </trkpt>
      <trkpt lat="44.84226" lon="6.16904">
        <ele>2403.9</ele>
        <time>2021-07-13T12:49:59.74Z</time>
      </trkpt>
      <trkpt lat="44.84238" lon="6.16895">
        <ele>2401.7</ele>
        <time>2021-07-13T12:50:15.28Z</time>
      </trkpt>
      <trkpt lat="44.8425" lon="6.16892">
        <ele>2400.1</ele>
        <time>2021-07-13T12:50:29.20Z</time>
      </trkpt>
      <trkpt lat="44.84248" lon="6.16887">
        <ele>2400.7</ele>
        <time>2021-07-13T12:50:33.86Z</time>
      </trkpt>
      <trkpt lat="44.84231" lon="6.16882">
        <ele>2402.7</ele>
        <time>2021-07-13T12:50:53.70Z</time>
      </trkpt>
      <trkpt lat="44.84217" lon="6.16884">
        <ele>2404.2</ele>
        <time>2021-07-13T12:51:09.78Z</time>
      </trkpt>
      <trkpt lat="44.84218" lon="6.16878">
        <ele>2403.6</ele>
        <time>2021-07-13T12:51:14.78Z</time>
      </trkpt>
      <trkpt lat="44.84231" lon="6.16865">
        <ele>2402.5</ele>
        <time>2021-07-13T12:51:32.99Z</time>
      </trkpt>
      <trkpt lat="44.84234" lon="6.1686">
        <ele>2402.5</ele>
        <time>2021-07-13T12:51:38.30Z</time>
      </trkpt>
      <trkpt lat="44.84248" lon="6.16861">
        <ele>2402.7</ele>
        <time>2021-07-13T12:51:54.32Z</time>
      </trkpt>
      <trkpt lat="44.84251" lon="6.16838">
        <ele>2404.9</ele>
        <time>2021-07-13T12:52:13.27Z</time>
      </trkpt>
      <trkpt lat="44.84254" lon="6.16813">
        <ele>2405.2</ele>
        <time>2021-07-13T12:52:33.82Z</time>
      </trkpt>
      <trkpt lat="44.84253" lon="6.16798">
        <ele>2404.2</ele>
        <time>2021-07-13T12:52:46.03Z</time>
      </trkpt>
      <trkpt lat="44.8424" lon="6.16788">
        <ele>2400</ele>
        <time>2021-07-13T12:53:02.95Z</time>
      </trkpt>
      <trkpt lat="44.84234" lon="6.16808">
        <ele>2400.3</ele>
        <time>2021-07-13T12:53:20.55Z</time>
      </trkpt>
      <trkpt lat="44.84224" lon="6.16793">
        <ele>2396.1</ele>
        <time>2021-07-13T12:53:37.23Z</time>
      </trkpt>
      <trkpt lat="44.84222" lon="6.16795">
        <ele>2395.9</ele>
        <time>2021-07-13T12:53:40.03Z</time>
      </trkpt>
      <trkpt lat="44.84216" lon="6.16782">
        <ele>2392.4</ele>
        <time>2021-07-13T12:53:52.60Z</time>
      </trkpt>
      <trkpt lat="44.84213" lon="6.16754">
        <ele>2387</ele>
        <time>2021-07-13T12:54:15.55Z</time>
      </trkpt>
      <trkpt lat="44.84219" lon="6.16732">
        <ele>2386.6</ele>
        <time>2021-07-13T12:54:34.65Z</time>
      </trkpt>
      <trkpt lat="44.84216" lon="6.16719">
        <ele>2384</ele>
        <time>2021-07-13T12:54:45.73Z</time>
      </trkpt>
      <trkpt lat="44.84219" lon="6.16695">
        <ele>2382.3</ele>
        <time>2021-07-13T12:55:05.48Z</time>
      </trkpt>
      <trkpt lat="44.8423" lon="6.16679">
        <ele>2384.1</ele>
        <time>2021-07-13T12:55:23.54Z</time>
      </trkpt>
      <trkpt lat="44.84253" lon="6.16663">
        <ele>2389.1</ele>
        <time>2021-07-13T12:55:52.85Z</time>
      </trkpt>
      <trkpt lat="44.84253" lon="6.1664">
        <ele>2387</ele>
        <time>2021-07-13T12:56:11.48Z</time>
      </trkpt>
      <trkpt lat="44.84258" lon="6.16622">
        <ele>2385.7</ele>
        <time>2021-07-13T12:56:27.15Z</time>
      </trkpt>
      <trkpt lat="44.84263" lon="6.16582">
        <ele>2381.4</ele>
        <time>2021-07-13T12:57:00.06Z</time>
      </trkpt>
      <trkpt lat="44.84271" lon="6.16569">
        <ele>2380</ele>
        <time>2021-07-13T12:57:14.01Z</time>
      </trkpt>
      <trkpt lat="44.84274" lon="6.16563">
        <ele>2379.3</ele>
        <time>2021-07-13T12:57:19.96Z</time>
      </trkpt>
      <trkpt lat="44.84277" lon="6.16535">
        <ele>2376.6</ele>
        <time>2021-07-13T12:57:42.91Z</time>
      </trkpt>
      <trkpt lat="44.84276" lon="6.16516">
        <ele>2374.9</ele>
        <time>2021-07-13T12:57:58.35Z</time>
      </trkpt>
      <trkpt lat="44.84274" lon="6.16498">
        <ele>2373.2</ele>
        <time>2021-07-13T12:58:13.11Z</time>
      </trkpt>
      <trkpt lat="44.84278" lon="6.16479">
        <ele>2369.6</ele>
        <time>2021-07-13T12:58:29.17Z</time>
      </trkpt>
      <trkpt lat="44.84281" lon="6.16474">
        <ele>2368.7</ele>
        <time>2021-07-13T12:58:34.48Z</time>
      </trkpt>
      <trkpt lat="44.84295" lon="6.16468">
        <ele>2368</ele>
        <time>2021-07-13T12:58:51.20Z</time>
      </trkpt>
      <trkpt lat="44.84307" lon="6.16458">
        <ele>2367.2</ele>
        <time>2021-07-13T12:59:07.13Z</time>
      </trkpt>
      <trkpt lat="44.84309" lon="6.16451">
        <ele>2366.6</ele>
        <time>2021-07-13T12:59:13.25Z</time>
      </trkpt>
      <trkpt lat="44.84309" lon="6.16425">
        <ele>2364</ele>
        <time>2021-07-13T12:59:34.32Z</time>
      </trkpt>
      <trkpt lat="44.84318" lon="6.16403">
        <ele>2363.1</ele>
        <time>2021-07-13T12:59:54.90Z</time>
      </trkpt>
      <trkpt lat="44.84337" lon="6.16392">
        <ele>2365.9</ele>
        <time>2021-07-13T13:00:18.37Z</time>
      </trkpt>
      <trkpt lat="44.84362" lon="6.16382">
        <ele>2373.7</ele>
        <time>2021-07-13T13:00:48.07Z</time>
      </trkpt>
      <trkpt lat="44.84368" lon="6.16376">
        <ele>2375.2</ele>
        <time>2021-07-13T13:00:56.47Z</time>
      </trkpt>
      <trkpt lat="44.84362" lon="6.16351">
        <ele>2370.5</ele>
        <time>2021-07-13T13:01:17.86Z</time>
      </trkpt>
      <trkpt lat="44.84348" lon="6.16327">
        <ele>2362</ele>
        <time>2021-07-13T13:01:43.04Z</time>
      </trkpt>
      <trkpt lat="44.84329" lon="6.16301">
        <ele>2350</ele>
        <time>2021-07-13T13:02:13.30Z</time>
      </trkpt>
      <trkpt lat="44.84327" lon="6.16291">
        <ele>2347.1</ele>
        <time>2021-07-13T13:02:21.72Z</time>
      </trkpt>
      <trkpt lat="44.84319" lon="6.16275">
        <ele>2341.9</ele>
        <time>2021-07-13T13:02:37.58Z</time>
      </trkpt>
      <trkpt lat="44.84347" lon="6.16274">
        <ele>2346.1</ele>
        <time>2021-07-13T13:03:09.59Z</time>
      </trkpt>
      <trkpt lat="44.84333" lon="6.16264">
        <ele>2341.5</ele>
        <time>2021-07-13T13:03:27.53Z</time>
      </trkpt>
      <trkpt lat="44.84324" lon="6.16252">
        <ele>2337.2</ele>
        <time>2021-07-13T13:03:41.68Z</time>
      </trkpt>
      <trkpt lat="44.84334" lon="6.16257">
        <ele>2339.8</ele>
        <time>2021-07-13T13:03:53.81Z</time>
      </trkpt>
      <trkpt lat="44.84351" lon="6.16258">
        <ele>2341.7</ele>
        <time>2021-07-13T13:04:13.26Z</time>
      </trkpt>
      <trkpt lat="44.84357" lon="6.16254">
        <ele>2341</ele>
        <time>2021-07-13T13:04:20.84Z</time>
      </trkpt>
      <trkpt lat="44.84351" lon="6.16253">
        <ele>2340.2</ele>
        <time>2021-07-13T13:04:27.74Z</time>
      </trkpt>
      <trkpt lat="44.8433" lon="6.16229">
        <ele>2324.5</ele>
        <time>2021-07-13T13:04:58.64Z</time>
      </trkpt>
      <trkpt lat="44.84345" lon="6.16235">
        <ele>2329.3</ele>
        <time>2021-07-13T13:05:16.45Z</time>
      </trkpt>
      <trkpt lat="44.84328" lon="6.16217">
        <ele>2316.9</ele>
        <time>2021-07-13T13:05:40.75Z</time>
      </trkpt>
      <trkpt lat="44.84314" lon="6.1619">
        <ele>2301.5</ele>
        <time>2021-07-13T13:06:07.85Z</time>
      </trkpt>
      <trkpt lat="44.84337" lon="6.16204">
        <ele>2309</ele>
        <time>2021-07-13T13:06:36.48Z</time>
      </trkpt>
      <trkpt lat="44.8435" lon="6.16207">
        <ele>2312</ele>
        <time>2021-07-13T13:06:51.54Z</time>
      </trkpt>
      <trkpt lat="44.84374" lon="6.16205">
        <ele>2312.6</ele>
        <time>2021-07-13T13:07:19.01Z</time>
      </trkpt>
      <trkpt lat="44.84416" lon="6.16184">
        <ele>2302.8</ele>
        <time>2021-07-13T13:08:09.94Z</time>
      </trkpt>
      <trkpt lat="44.8443" lon="6.16169">
        <ele>2295.5</ele>
        <time>2021-07-13T13:08:30.03Z</time>
      </trkpt>
      <trkpt lat="44.84446" lon="6.1616">
        <ele>2293.6</ele>
        <time>2021-07-13T13:08:49.72Z</time>
      </trkpt>
      <trkpt lat="44.84473" lon="6.16121">
        <ele>2281.8</ele>
        <time>2021-07-13T13:09:33.89Z</time>
      </trkpt>
      <trkpt lat="44.845" lon="6.16098">
        <ele>2278.6</ele>
        <time>2021-07-13T13:10:09.94Z</time>
      </trkpt>
      <trkpt lat="44.84532" lon="6.16083">
        <ele>2283.2</ele>
        <time>2021-07-13T13:10:48.48Z</time>
      </trkpt>
      <trkpt lat="44.84567" lon="6.16041">
        <ele>2278</ele>
        <time>2021-07-13T13:11:41Z</time>
      </trkpt>
      <trkpt lat="44.84577" lon="6.1603">
        <ele>2277.6</ele>
        <time>2021-07-13T13:11:55.49Z</time>
      </trkpt>
      <trkpt lat="44.84585" lon="6.16017">
        <ele>2276.1</ele>
        <time>2021-07-13T13:12:09.44Z</time>
      </trkpt>
      <trkpt lat="44.84582" lon="6.15975">
        <ele>2261.1</ele>
        <time>2021-07-13T13:12:43.64Z</time>
      </trkpt>
      <trkpt lat="44.8459" lon="6.15937">
        <ele>2254.8</ele>
        <time>2021-07-13T13:13:15.76Z</time>
      </trkpt>
      <trkpt lat="44.84578" lon="6.15941">
        <ele>2248.9</ele>
        <time>2021-07-13T13:13:29.85Z</time>
      </trkpt>
      <trkpt lat="44.84561" lon="6.15982">
        <ele>2253</ele>
        <time>2021-07-13T13:14:08.34Z</time>
      </trkpt>
      <trkpt lat="44.84562" lon="6.15923">
        <ele>2233.6</ele>
        <time>2021-07-13T13:14:56.16Z</time>
      </trkpt>
      <trkpt lat="44.84547" lon="6.15941">
        <ele>2230.9</ele>
        <time>2021-07-13T13:15:18.67Z</time>
      </trkpt>
      <trkpt lat="44.84548" lon="6.15903">
        <ele>2219.7</ele>
        <time>2021-07-13T13:15:49.48Z</time>
      </trkpt>
      <trkpt lat="44.8454" lon="6.1591">
        <ele>2216</ele>
        <time>2021-07-13T13:16:00.24Z</time>
      </trkpt>
      <trkpt lat="44.84532" lon="6.15937">
        <ele>2220.6</ele>
        <time>2021-07-13T13:16:23.95Z</time>
      </trkpt>
      <trkpt lat="44.84533" lon="6.1588">
        <ele>2204.6</ele>
        <time>2021-07-13T13:17:10.15Z</time>
      </trkpt>
      <trkpt lat="44.84539" lon="6.15864">
        <ele>2205.2</ele>
        <time>2021-07-13T13:17:24.82Z</time>
      </trkpt>
      <trkpt lat="44.8455" lon="6.15848">
        <ele>2209.8</ele>
        <time>2021-07-13T13:17:42.88Z</time>
      </trkpt>
      <trkpt lat="44.84555" lon="6.15821">
        <ele>2208.6</ele>
        <time>2021-07-13T13:18:05.49Z</time>
      </trkpt>
      <trkpt lat="44.84549" lon="6.15801">
        <ele>2201</ele>
        <time>2021-07-13T13:18:23.09Z</time>
      </trkpt>
      <trkpt lat="44.84526" lon="6.15765">
        <ele>2179.5</ele>
        <time>2021-07-13T13:19:02.35Z</time>
      </trkpt>
      <trkpt lat="44.84511" lon="6.15735">
        <ele>2166.9</ele>
        <time>2021-07-13T13:19:32.10Z</time>
      </trkpt>
      <trkpt lat="44.84504" lon="6.15704">
        <ele>2160.7</ele>
        <time>2021-07-13T13:19:58.46Z</time>
      </trkpt>
      <trkpt lat="44.84504" lon="6.15684">
        <ele>2159.9</ele>
        <time>2021-07-13T13:20:14.67Z</time>
      </trkpt>
      <trkpt lat="44.84508" lon="6.15651">
        <ele>2162.3</ele>
        <time>2021-07-13T13:20:41.80Z</time>
      </trkpt>
      <trkpt lat="44.84499" lon="6.15626">
        <ele>2155.3</ele>
        <time>2021-07-13T13:21:04.52Z</time>
      </trkpt>
      <trkpt lat="44.84498" lon="6.15586">
        <ele>2154.6</ele>
        <time>2021-07-13T13:21:36.95Z</time>
      </trkpt>
      <trkpt lat="44.84501" lon="6.15553">
        <ele>2161.9</ele>
        <time>2021-07-13T13:22:03.91Z</time>
      </trkpt>
      <trkpt lat="44.84495" lon="6.15518">
        <ele>2163.7</ele>
        <time>2021-07-13T13:22:33.09Z</time>
      </trkpt>
      <trkpt lat="44.84482" lon="6.1548">
        <ele>2161.4</ele>
        <time>2021-07-13T13:23:07.27Z</time>
      </trkpt>
      <trkpt lat="44.84472" lon="6.1543">
        <ele>2165.4</ele>
        <time>2021-07-13T13:23:49.37Z</time>
      </trkpt>
      <trkpt lat="44.84459" lon="6.15405">
        <ele>2165</ele>
        <time>2021-07-13T13:24:14.49Z</time>
      </trkpt>
      <trkpt lat="44.84438" lon="6.1538">
        <ele>2165.8</ele>
        <time>2021-07-13T13:24:45.90Z</time>
      </trkpt>
      <trkpt lat="44.84464" lon="6.15377">
        <ele>2165.8</ele>
        <time>2021-07-13T13:25:15.71Z</time>
      </trkpt>
      <trkpt lat="44.8448" lon="6.15371">
        <ele>2164.8</ele>
        <time>2021-07-13T13:25:34.63Z</time>
      </trkpt>
      <trkpt lat="44.845" lon="6.15366">
        <ele>2162.2</ele>
        <time>2021-07-13T13:25:57.85Z</time>
      </trkpt>
      <trkpt lat="44.8452" lon="6.15354">
        <ele>2168.7</ele>
        <time>2021-07-13T13:26:22.69Z</time>
      </trkpt>
      <trkpt lat="44.84536" lon="6.15333">
        <ele>2169</ele>
        <time>2021-07-13T13:26:47.67Z</time>
      </trkpt>
      <trkpt lat="44.84555" lon="6.1528">
        <ele>2160.3</ele>
        <time>2021-07-13T13:27:35.79Z</time>
      </trkpt>
      <trkpt lat="44.84587" lon="6.15233">
        <ele>2153.6</ele>
        <time>2021-07-13T13:28:28.59Z</time>
      </trkpt>
      <trkpt lat="44.84575" lon="6.15232">
        <ele>2148.8</ele>
        <time>2021-07-13T13:28:42.33Z</time>
      </trkpt>
      <trkpt lat="44.84552" lon="6.15243">
        <ele>2147</ele>
        <time>2021-07-13T13:29:10.08Z</time>
      </trkpt>
      <trkpt lat="44.84559" lon="6.15212">
        <ele>2135.7</ele>
        <time>2021-07-13T13:29:36.44Z</time>
      </trkpt>
      <trkpt lat="44.84575" lon="6.15179">
        <ele>2126</ele>
        <time>2021-07-13T13:30:08.84Z</time>
      </trkpt>
      <trkpt lat="44.84593" lon="6.15152">
        <ele>2122.6</ele>
        <time>2021-07-13T13:30:38.87Z</time>
      </trkpt>
      <trkpt lat="44.8456" lon="6.15155">
        <ele>2112.8</ele>
        <time>2021-07-13T13:31:16.66Z</time>
      </trkpt>
      <trkpt lat="44.84553" lon="6.15151">
        <ele>2109.6</ele>
        <time>2021-07-13T13:31:25.29Z</time>
      </trkpt>
      <trkpt lat="44.84581" lon="6.15114">
        <ele>2105.9</ele>
        <time>2021-07-13T13:32:09.14Z</time>
      </trkpt>
      <trkpt lat="44.8459" lon="6.15078">
        <ele>2096.6</ele>
        <time>2021-07-13T13:32:40.07Z</time>
      </trkpt>
      <trkpt lat="44.84524" lon="6.15093">
        <ele>2082.4</ele>
        <time>2021-07-13T13:33:56.48Z</time>
      </trkpt>
      <trkpt lat="44.845" lon="6.15089">
        <ele>2073.9</ele>
        <time>2021-07-13T13:34:24.10Z</time>
      </trkpt>
      <trkpt lat="44.84476" lon="6.15091">
        <ele>2078.5</ele>
        <time>2021-07-13T13:34:51.57Z</time>
      </trkpt>
      <trkpt lat="44.84472" lon="6.15083">
        <ele>2075.9</ele>
        <time>2021-07-13T13:34:59.50Z</time>
      </trkpt>
      <trkpt lat="44.84495" lon="6.15034">
        <ele>2057</ele>
        <time>2021-07-13T13:35:47.12Z</time>
      </trkpt>
      <trkpt lat="44.84506" lon="6.15022">
        <ele>2053.5</ele>
        <time>2021-07-13T13:36:03.02Z</time>
      </trkpt>
      <trkpt lat="44.84536" lon="6.1501">
        <ele>2055.6</ele>
        <time>2021-07-13T13:36:38.65Z</time>
      </trkpt>
      <trkpt lat="44.84581" lon="6.14978">
        <ele>2050.6</ele>
        <time>2021-07-13T13:37:36.25Z</time>
      </trkpt>
      <trkpt lat="44.84559" lon="6.14969">
        <ele>2043.8</ele>
        <time>2021-07-13T13:38:02.43Z</time>
      </trkpt>
      <trkpt lat="44.8453" lon="6.1495">
        <ele>2033.7</ele>
        <time>2021-07-13T13:38:38.97Z</time>
      </trkpt>
      <trkpt lat="44.84465" lon="6.14875">
        <ele>2015.7</ele>
        <time>2021-07-13T13:40:14.95Z</time>
      </trkpt>
      <trkpt lat="44.84446" lon="6.14842">
        <ele>2008</ele>
        <time>2021-07-13T13:40:49.40Z</time>
      </trkpt>
      <trkpt lat="44.84474" lon="6.14838">
        <ele>2001.9</ele>
        <time>2021-07-13T13:41:21.56Z</time>
      </trkpt>
      <trkpt lat="44.84477" lon="6.14817">
        <ele>1996.8</ele>
        <time>2021-07-13T13:41:38.92Z</time>
      </trkpt>
      <trkpt lat="44.84479" lon="6.14777">
        <ele>1988.9</ele>
        <time>2021-07-13T13:42:11.41Z</time>
      </trkpt>
      <trkpt lat="44.84493" lon="6.14724">
        <ele>1977.4</ele>
        <time>2021-07-13T13:42:57.24Z</time>
      </trkpt>
      <trkpt lat="44.84492" lon="6.147">
        <ele>1973.3</ele>
        <time>2021-07-13T13:43:16.72Z</time>
      </trkpt>
      <trkpt lat="44.84477" lon="6.14657">
        <ele>1965.8</ele>
        <time>2021-07-13T13:43:55.55Z</time>
      </trkpt>
      <trkpt lat="44.8449" lon="6.1466">
        <ele>1965.9</ele>
        <time>2021-07-13T13:44:10.61Z</time>
      </trkpt>
      <trkpt lat="44.84493" lon="6.14639">
        <ele>1960.6</ele>
        <time>2021-07-13T13:44:27.97Z</time>
      </trkpt>
      <trkpt lat="44.8448" lon="6.14621">
        <ele>1956.3</ele>
        <time>2021-07-13T13:44:48.79Z</time>
      </trkpt>
      <trkpt lat="44.84493" lon="6.14616">
        <ele>1954.9</ele>
        <time>2021-07-13T13:45:04.19Z</time>
      </trkpt>
      <trkpt lat="44.84487" lon="6.14609">
        <ele>1953.2</ele>
        <time>2021-07-13T13:45:13.09Z</time>
      </trkpt>
      <trkpt lat="44.84476" lon="6.14607">
        <ele>1952.7</ele>
        <time>2021-07-13T13:45:25.76Z</time>
      </trkpt>
    </trkseg>
  </trk>
</gpx>